<?xml version="1.0" encoding="UTF-8" standalone="no" ?>
<gpx xmlns="http://www.topografix.com/GPX/1/1" xmlns:xsi="http://www.w3.org/2001/XMLSchema-instance" xsi:schemaLocation="http://www.topografix.com/GPX/1/1 http://www.topografix.com/GPX/1/1/gpx.xsd" version="1.1" creator="VisuGPX - https://www.visugpx.com">
  <metadata>
    <name>Sortie entrainement à pied semi-long</name>
    <desc><![CDATA[Une première sortie pur ce qui représente pour moi une sortie en foncier.
Circuit plutôt plat, mixant routes et chemin environ0/60% ]]></desc>
  </metadata>
  <trk>
    <name><![CDATA[2013-12-10T12_4]]></name>
    <trkseg>
      <trkpt lat="44.35366" lon="2.57224">
        <ele>622.276</ele>
        <time>2013-12-10T12:43:55Z</time>
      </trkpt>
      <trkpt lat="44.35366" lon="2.57224">
        <ele>622.244</ele>
        <time>2013-12-10T12:43:56Z</time>
      </trkpt>
      <trkpt lat="44.35366" lon="2.57224">
        <ele>634.671</ele>
        <time>2013-12-10T12:44:31Z</time>
      </trkpt>
      <trkpt lat="44.35366" lon="2.57224">
        <ele>644.537</ele>
        <time>2013-12-10T12:45:04Z</time>
      </trkpt>
      <trkpt lat="44.35367" lon="2.57221">
        <ele>646.467</ele>
        <time>2013-12-10T12:45:09Z</time>
      </trkpt>
      <trkpt lat="44.35362" lon="2.57234">
        <ele>647.947</ele>
        <time>2013-12-10T12:45:13Z</time>
      </trkpt>
      <trkpt lat="44.35355" lon="2.57254">
        <ele>642.485</ele>
        <time>2013-12-10T12:45:19Z</time>
      </trkpt>
      <trkpt lat="44.35352" lon="2.57263">
        <ele>638.384</ele>
        <time>2013-12-10T12:45:22Z</time>
      </trkpt>
      <trkpt lat="44.35346" lon="2.57281">
        <ele>628.132</ele>
        <time>2013-12-10T12:45:27Z</time>
      </trkpt>
      <trkpt lat="44.3534" lon="2.57298">
        <ele>625.123</ele>
        <time>2013-12-10T12:45:33Z</time>
      </trkpt>
      <trkpt lat="44.35354" lon="2.57325">
        <ele>627.975</ele>
        <time>2013-12-10T12:45:38Z</time>
      </trkpt>
      <trkpt lat="44.35367" lon="2.5734">
        <ele>635.638</ele>
        <time>2013-12-10T12:45:44Z</time>
      </trkpt>
      <trkpt lat="44.35376" lon="2.57351">
        <ele>633.507</ele>
        <time>2013-12-10T12:45:48Z</time>
      </trkpt>
      <trkpt lat="44.35388" lon="2.57365">
        <ele>630.246</ele>
        <time>2013-12-10T12:45:52Z</time>
      </trkpt>
      <trkpt lat="44.35396" lon="2.57375">
        <ele>634.008</ele>
        <time>2013-12-10T12:45:57Z</time>
      </trkpt>
      <trkpt lat="44.35409" lon="2.57389">
        <ele>633.468</ele>
        <time>2013-12-10T12:46:03Z</time>
      </trkpt>
      <trkpt lat="44.3542" lon="2.57402">
        <ele>639.379</ele>
        <time>2013-12-10T12:46:09Z</time>
      </trkpt>
      <trkpt lat="44.3543" lon="2.57414">
        <ele>630.836</ele>
        <time>2013-12-10T12:46:16Z</time>
      </trkpt>
      <trkpt lat="44.35433" lon="2.57417">
        <ele>626.044</ele>
        <time>2013-12-10T12:46:17Z</time>
      </trkpt>
      <trkpt lat="44.35439" lon="2.57425">
        <ele>623.896</ele>
        <time>2013-12-10T12:46:23Z</time>
      </trkpt>
      <trkpt lat="44.35441" lon="2.57426">
        <ele>634.231</ele>
        <time>2013-12-10T12:46:28Z</time>
      </trkpt>
      <trkpt lat="44.35441" lon="2.57426">
        <ele>636.71</ele>
        <time>2013-12-10T12:46:29Z</time>
      </trkpt>
      <trkpt lat="44.35436" lon="2.57428">
        <ele>639.814</ele>
        <time>2013-12-10T12:46:31Z</time>
      </trkpt>
      <trkpt lat="44.35434" lon="2.57432">
        <ele>639.21</ele>
        <time>2013-12-10T12:46:35Z</time>
      </trkpt>
      <trkpt lat="44.35426" lon="2.57452">
        <ele>628.266</ele>
        <time>2013-12-10T12:46:44Z</time>
      </trkpt>
      <trkpt lat="44.3542" lon="2.57466">
        <ele>627.436</ele>
        <time>2013-12-10T12:46:50Z</time>
      </trkpt>
      <trkpt lat="44.35419" lon="2.5747">
        <ele>627.866</ele>
        <time>2013-12-10T12:46:51Z</time>
      </trkpt>
      <trkpt lat="44.35418" lon="2.57482">
        <ele>630.127</ele>
        <time>2013-12-10T12:46:57Z</time>
      </trkpt>
      <trkpt lat="44.35423" lon="2.57498">
        <ele>629.066</ele>
        <time>2013-12-10T12:47:05Z</time>
      </trkpt>
      <trkpt lat="44.35426" lon="2.57506">
        <ele>627.276</ele>
        <time>2013-12-10T12:47:10Z</time>
      </trkpt>
      <trkpt lat="44.35428" lon="2.57515">
        <ele>627.287</ele>
        <time>2013-12-10T12:47:14Z</time>
      </trkpt>
      <trkpt lat="44.35432" lon="2.57528">
        <ele>634.37</ele>
        <time>2013-12-10T12:47:19Z</time>
      </trkpt>
      <trkpt lat="44.35435" lon="2.57542">
        <ele>635.419</ele>
        <time>2013-12-10T12:47:23Z</time>
      </trkpt>
      <trkpt lat="44.35438" lon="2.57551">
        <ele>639.03</ele>
        <time>2013-12-10T12:47:27Z</time>
      </trkpt>
      <trkpt lat="44.35438" lon="2.57553">
        <ele>636.069</ele>
        <time>2013-12-10T12:47:28Z</time>
      </trkpt>
      <trkpt lat="44.35441" lon="2.5757">
        <ele>633.888</ele>
        <time>2013-12-10T12:47:33Z</time>
      </trkpt>
      <trkpt lat="44.35443" lon="2.5759">
        <ele>640.18</ele>
        <time>2013-12-10T12:47:39Z</time>
      </trkpt>
      <trkpt lat="44.35447" lon="2.57611">
        <ele>642.308</ele>
        <time>2013-12-10T12:47:45Z</time>
      </trkpt>
      <trkpt lat="44.3545" lon="2.57626">
        <ele>644.098</ele>
        <time>2013-12-10T12:47:50Z</time>
      </trkpt>
      <trkpt lat="44.35453" lon="2.57634">
        <ele>645.438</ele>
        <time>2013-12-10T12:47:52Z</time>
      </trkpt>
      <trkpt lat="44.35457" lon="2.57651">
        <ele>639.286</ele>
        <time>2013-12-10T12:47:57Z</time>
      </trkpt>
      <trkpt lat="44.35472" lon="2.57648">
        <ele>625.503</ele>
        <time>2013-12-10T12:48:02Z</time>
      </trkpt>
      <trkpt lat="44.35478" lon="2.57646">
        <ele>619.012</ele>
        <time>2013-12-10T12:48:05Z</time>
      </trkpt>
      <trkpt lat="44.35494" lon="2.57641">
        <ele>608.102</ele>
        <time>2013-12-10T12:48:11Z</time>
      </trkpt>
      <trkpt lat="44.35505" lon="2.57639">
        <ele>600.433</ele>
        <time>2013-12-10T12:48:16Z</time>
      </trkpt>
      <trkpt lat="44.35515" lon="2.57637">
        <ele>598.473</ele>
        <time>2013-12-10T12:48:19Z</time>
      </trkpt>
      <trkpt lat="44.35513" lon="2.57621">
        <ele>600.488</ele>
        <time>2013-12-10T12:48:23Z</time>
      </trkpt>
      <trkpt lat="44.35526" lon="2.57654">
        <ele>615.13</ele>
        <time>2013-12-10T12:48:33Z</time>
      </trkpt>
      <trkpt lat="44.3554" lon="2.5767">
        <ele>624.332</ele>
        <time>2013-12-10T12:48:39Z</time>
      </trkpt>
      <trkpt lat="44.35545" lon="2.57676">
        <ele>625.492</ele>
        <time>2013-12-10T12:48:42Z</time>
      </trkpt>
      <trkpt lat="44.3555" lon="2.57681">
        <ele>623.421</ele>
        <time>2013-12-10T12:48:44Z</time>
      </trkpt>
      <trkpt lat="44.35558" lon="2.57693">
        <ele>622.041</ele>
        <time>2013-12-10T12:48:49Z</time>
      </trkpt>
      <trkpt lat="44.35556" lon="2.57696">
        <ele>620.449</ele>
        <time>2013-12-10T12:48:51Z</time>
      </trkpt>
      <trkpt lat="44.35545" lon="2.57704">
        <ele>614.186</ele>
        <time>2013-12-10T12:48:57Z</time>
      </trkpt>
      <trkpt lat="44.35534" lon="2.57712">
        <ele>616.738</ele>
        <time>2013-12-10T12:49:02Z</time>
      </trkpt>
      <trkpt lat="44.35528" lon="2.57717">
        <ele>611.686</ele>
        <time>2013-12-10T12:49:05Z</time>
      </trkpt>
      <trkpt lat="44.35519" lon="2.57723">
        <ele>609.976</ele>
        <time>2013-12-10T12:49:10Z</time>
      </trkpt>
      <trkpt lat="44.35519" lon="2.57723">
        <ele>609.936</ele>
        <time>2013-12-10T12:49:11Z</time>
      </trkpt>
      <trkpt lat="44.35518" lon="2.57724">
        <ele>610.368</ele>
        <time>2013-12-10T12:49:17Z</time>
      </trkpt>
      <trkpt lat="44.35516" lon="2.57725">
        <ele>604.986</ele>
        <time>2013-12-10T12:49:19Z</time>
      </trkpt>
      <trkpt lat="44.35501" lon="2.57738">
        <ele>588.492</ele>
        <time>2013-12-10T12:49:25Z</time>
      </trkpt>
      <trkpt lat="44.3549" lon="2.57748">
        <ele>581.711</ele>
        <time>2013-12-10T12:49:31Z</time>
      </trkpt>
      <trkpt lat="44.3548" lon="2.57764">
        <ele>580.275</ele>
        <time>2013-12-10T12:49:36Z</time>
      </trkpt>
      <trkpt lat="44.35476" lon="2.57774">
        <ele>578.666</ele>
        <time>2013-12-10T12:49:42Z</time>
      </trkpt>
      <trkpt lat="44.35476" lon="2.57776">
        <ele>588.941</ele>
        <time>2013-12-10T12:49:47Z</time>
      </trkpt>
      <trkpt lat="44.3547" lon="2.57789">
        <ele>594.721</ele>
        <time>2013-12-10T12:49:52Z</time>
      </trkpt>
      <trkpt lat="44.35463" lon="2.57806">
        <ele>595.59</ele>
        <time>2013-12-10T12:49:59Z</time>
      </trkpt>
      <trkpt lat="44.35457" lon="2.5782">
        <ele>585.404</ele>
        <time>2013-12-10T12:50:04Z</time>
      </trkpt>
      <trkpt lat="44.35447" lon="2.57835">
        <ele>585.427</ele>
        <time>2013-12-10T12:50:10Z</time>
      </trkpt>
      <trkpt lat="44.35437" lon="2.57843">
        <ele>581.336</ele>
        <time>2013-12-10T12:50:15Z</time>
      </trkpt>
      <trkpt lat="44.35434" lon="2.57846">
        <ele>576.764</ele>
        <time>2013-12-10T12:50:20Z</time>
      </trkpt>
      <trkpt lat="44.35409" lon="2.57847">
        <ele>571.195</ele>
        <time>2013-12-10T12:50:25Z</time>
      </trkpt>
      <trkpt lat="44.354" lon="2.57847">
        <ele>571.206</ele>
        <time>2013-12-10T12:50:30Z</time>
      </trkpt>
      <trkpt lat="44.35384" lon="2.57848">
        <ele>577.018</ele>
        <time>2013-12-10T12:50:36Z</time>
      </trkpt>
      <trkpt lat="44.35374" lon="2.57854">
        <ele>580.369</ele>
        <time>2013-12-10T12:50:42Z</time>
      </trkpt>
      <trkpt lat="44.35358" lon="2.5787">
        <ele>584.57</ele>
        <time>2013-12-10T12:50:48Z</time>
      </trkpt>
      <trkpt lat="44.35368" lon="2.57903">
        <ele>596.543</ele>
        <time>2013-12-10T12:50:55Z</time>
      </trkpt>
      <trkpt lat="44.35367" lon="2.57915">
        <ele>593.619</ele>
        <time>2013-12-10T12:51:01Z</time>
      </trkpt>
      <trkpt lat="44.35325" lon="2.57915">
        <ele>588.287</ele>
        <time>2013-12-10T12:51:08Z</time>
      </trkpt>
      <trkpt lat="44.35313" lon="2.5793">
        <ele>582.006</ele>
        <time>2013-12-10T12:51:14Z</time>
      </trkpt>
      <trkpt lat="44.35311" lon="2.57933">
        <ele>580.145</ele>
        <time>2013-12-10T12:51:15Z</time>
      </trkpt>
      <trkpt lat="44.3531" lon="2.57934">
        <ele>572.374</ele>
        <time>2013-12-10T12:51:18Z</time>
      </trkpt>
      <trkpt lat="44.3531" lon="2.57934">
        <ele>568.364</ele>
        <time>2013-12-10T12:51:22Z</time>
      </trkpt>
      <trkpt lat="44.3531" lon="2.57934">
        <ele>565.345</ele>
        <time>2013-12-10T12:51:27Z</time>
      </trkpt>
      <trkpt lat="44.3531" lon="2.57934">
        <ele>563.007</ele>
        <time>2013-12-10T12:51:31Z</time>
      </trkpt>
      <trkpt lat="44.3531" lon="2.57934">
        <ele>564.056</ele>
        <time>2013-12-10T12:51:45Z</time>
      </trkpt>
      <trkpt lat="44.3531" lon="2.57934">
        <ele>563.256</ele>
        <time>2013-12-10T12:51:47Z</time>
      </trkpt>
      <trkpt lat="44.3531" lon="2.57934">
        <ele>560.886</ele>
        <time>2013-12-10T12:51:55Z</time>
      </trkpt>
      <trkpt lat="44.3531" lon="2.57934">
        <ele>561.197</ele>
        <time>2013-12-10T12:52:01Z</time>
      </trkpt>
      <trkpt lat="44.3531" lon="2.57934">
        <ele>553.685</ele>
        <time>2013-12-10T12:52:08Z</time>
      </trkpt>
      <trkpt lat="44.3531" lon="2.57934">
        <ele>551.505</ele>
        <time>2013-12-10T12:52:12Z</time>
      </trkpt>
      <trkpt lat="44.35382" lon="2.57932">
        <ele>547.626</ele>
        <time>2013-12-10T12:52:19Z</time>
      </trkpt>
      <trkpt lat="44.3537" lon="2.57981">
        <ele>545.937</ele>
        <time>2013-12-10T12:52:26Z</time>
      </trkpt>
      <trkpt lat="44.35371" lon="2.57991">
        <ele>543.797</ele>
        <time>2013-12-10T12:52:29Z</time>
      </trkpt>
      <trkpt lat="44.35372" lon="2.58008">
        <ele>541.817</ele>
        <time>2013-12-10T12:52:35Z</time>
      </trkpt>
      <trkpt lat="44.35373" lon="2.5803">
        <ele>536.726</ele>
        <time>2013-12-10T12:52:41Z</time>
      </trkpt>
      <trkpt lat="44.35375" lon="2.58051">
        <ele>534.595</ele>
        <time>2013-12-10T12:52:45Z</time>
      </trkpt>
      <trkpt lat="44.35376" lon="2.58071">
        <ele>540.219</ele>
        <time>2013-12-10T12:52:50Z</time>
      </trkpt>
      <trkpt lat="44.35376" lon="2.58086">
        <ele>541.809</ele>
        <time>2013-12-10T12:52:54Z</time>
      </trkpt>
      <trkpt lat="44.35376" lon="2.58104">
        <ele>540.169</ele>
        <time>2013-12-10T12:52:59Z</time>
      </trkpt>
      <trkpt lat="44.35376" lon="2.58104">
        <ele>543.25</ele>
        <time>2013-12-10T12:53:03Z</time>
      </trkpt>
      <trkpt lat="44.35376" lon="2.58104">
        <ele>545.369</ele>
        <time>2013-12-10T12:53:08Z</time>
      </trkpt>
      <trkpt lat="44.35334" lon="2.58115">
        <ele>537.466</ele>
        <time>2013-12-10T12:53:16Z</time>
      </trkpt>
      <trkpt lat="44.35316" lon="2.58123">
        <ele>529.515</ele>
        <time>2013-12-10T12:53:22Z</time>
      </trkpt>
      <trkpt lat="44.35311" lon="2.58126">
        <ele>528.376</ele>
        <time>2013-12-10T12:53:24Z</time>
      </trkpt>
      <trkpt lat="44.35299" lon="2.58147">
        <ele>523.355</ele>
        <time>2013-12-10T12:53:29Z</time>
      </trkpt>
      <trkpt lat="44.35301" lon="2.58154">
        <ele>528.757</ele>
        <time>2013-12-10T12:53:32Z</time>
      </trkpt>
      <trkpt lat="44.3531" lon="2.58174">
        <ele>535.319</ele>
        <time>2013-12-10T12:53:39Z</time>
      </trkpt>
      <trkpt lat="44.35308" lon="2.58189">
        <ele>534.829</ele>
        <time>2013-12-10T12:53:44Z</time>
      </trkpt>
      <trkpt lat="44.35306" lon="2.5821">
        <ele>540.54</ele>
        <time>2013-12-10T12:53:49Z</time>
      </trkpt>
      <trkpt lat="44.35316" lon="2.58238">
        <ele>551.283</ele>
        <time>2013-12-10T12:53:56Z</time>
      </trkpt>
      <trkpt lat="44.35315" lon="2.58246">
        <ele>551.201</ele>
        <time>2013-12-10T12:53:58Z</time>
      </trkpt>
      <trkpt lat="44.35314" lon="2.58264">
        <ele>553.281</ele>
        <time>2013-12-10T12:54:03Z</time>
      </trkpt>
      <trkpt lat="44.35314" lon="2.58274">
        <ele>553.961</ele>
        <time>2013-12-10T12:54:06Z</time>
      </trkpt>
      <trkpt lat="44.35314" lon="2.5827">
        <ele>551.158</ele>
        <time>2013-12-10T12:54:12Z</time>
      </trkpt>
      <trkpt lat="44.35315" lon="2.58255">
        <ele>548.017</ele>
        <time>2013-12-10T12:54:18Z</time>
      </trkpt>
      <trkpt lat="44.35315" lon="2.58244">
        <ele>543.376</ele>
        <time>2013-12-10T12:54:22Z</time>
      </trkpt>
      <trkpt lat="44.35316" lon="2.58235">
        <ele>539.827</ele>
        <time>2013-12-10T12:54:29Z</time>
      </trkpt>
      <trkpt lat="44.35316" lon="2.58235">
        <ele>542.289</ele>
        <time>2013-12-10T12:54:34Z</time>
      </trkpt>
      <trkpt lat="44.35316" lon="2.58235">
        <ele>546.13</ele>
        <time>2013-12-10T12:54:41Z</time>
      </trkpt>
      <trkpt lat="44.35316" lon="2.58235">
        <ele>548.95</ele>
        <time>2013-12-10T12:54:48Z</time>
      </trkpt>
      <trkpt lat="44.35316" lon="2.58235">
        <ele>550.23</ele>
        <time>2013-12-10T12:54:55Z</time>
      </trkpt>
      <trkpt lat="44.35316" lon="2.58235">
        <ele>545.178</ele>
        <time>2013-12-10T12:55:01Z</time>
      </trkpt>
      <trkpt lat="44.35316" lon="2.58235">
        <ele>539.565</ele>
        <time>2013-12-10T12:55:05Z</time>
      </trkpt>
      <trkpt lat="44.35214" lon="2.58491">
        <ele>540.837</ele>
        <time>2013-12-10T12:55:11Z</time>
      </trkpt>
      <trkpt lat="44.35209" lon="2.58499">
        <ele>543.798</ele>
        <time>2013-12-10T12:55:15Z</time>
      </trkpt>
      <trkpt lat="44.35198" lon="2.58523">
        <ele>540.977</ele>
        <time>2013-12-10T12:55:21Z</time>
      </trkpt>
      <trkpt lat="44.35189" lon="2.58542">
        <ele>535.176</ele>
        <time>2013-12-10T12:55:26Z</time>
      </trkpt>
      <trkpt lat="44.35183" lon="2.58559">
        <ele>534.357</ele>
        <time>2013-12-10T12:55:31Z</time>
      </trkpt>
      <trkpt lat="44.35178" lon="2.58575">
        <ele>532.597</ele>
        <time>2013-12-10T12:55:36Z</time>
      </trkpt>
      <trkpt lat="44.35171" lon="2.58593">
        <ele>532.317</ele>
        <time>2013-12-10T12:55:41Z</time>
      </trkpt>
      <trkpt lat="44.35167" lon="2.58605">
        <ele>534.518</ele>
        <time>2013-12-10T12:55:45Z</time>
      </trkpt>
      <trkpt lat="44.35163" lon="2.58615">
        <ele>533.278</ele>
        <time>2013-12-10T12:55:48Z</time>
      </trkpt>
      <trkpt lat="44.35155" lon="2.58639">
        <ele>536.209</ele>
        <time>2013-12-10T12:55:55Z</time>
      </trkpt>
      <trkpt lat="44.35148" lon="2.58657">
        <ele>541.52</ele>
        <time>2013-12-10T12:56:01Z</time>
      </trkpt>
      <trkpt lat="44.35141" lon="2.58676">
        <ele>541.74</ele>
        <time>2013-12-10T12:56:07Z</time>
      </trkpt>
      <trkpt lat="44.35134" lon="2.58695">
        <ele>536.187</ele>
        <time>2013-12-10T12:56:12Z</time>
      </trkpt>
      <trkpt lat="44.35126" lon="2.58714">
        <ele>535.077</ele>
        <time>2013-12-10T12:56:18Z</time>
      </trkpt>
      <trkpt lat="44.3512" lon="2.58731">
        <ele>538.549</ele>
        <time>2013-12-10T12:56:23Z</time>
      </trkpt>
      <trkpt lat="44.35113" lon="2.58746">
        <ele>538.159</ele>
        <time>2013-12-10T12:56:28Z</time>
      </trkpt>
      <trkpt lat="44.35107" lon="2.58757">
        <ele>538.819</ele>
        <time>2013-12-10T12:56:32Z</time>
      </trkpt>
      <trkpt lat="44.351" lon="2.58772">
        <ele>541.49</ele>
        <time>2013-12-10T12:56:37Z</time>
      </trkpt>
      <trkpt lat="44.35093" lon="2.58789">
        <ele>544.65</ele>
        <time>2013-12-10T12:56:43Z</time>
      </trkpt>
      <trkpt lat="44.35086" lon="2.58807">
        <ele>543.948</ele>
        <time>2013-12-10T12:56:48Z</time>
      </trkpt>
      <trkpt lat="44.35078" lon="2.5883">
        <ele>541.648</ele>
        <time>2013-12-10T12:56:55Z</time>
      </trkpt>
      <trkpt lat="44.35076" lon="2.58837">
        <ele>544.572</ele>
        <time>2013-12-10T12:56:59Z</time>
      </trkpt>
      <trkpt lat="44.35072" lon="2.58857">
        <ele>549.889</ele>
        <time>2013-12-10T12:57:26Z</time>
      </trkpt>
      <trkpt lat="44.35071" lon="2.58859">
        <ele>550.27</ele>
        <time>2013-12-10T12:57:30Z</time>
      </trkpt>
      <trkpt lat="44.35065" lon="2.58884">
        <ele>552.65</ele>
        <time>2013-12-10T12:57:37Z</time>
      </trkpt>
      <trkpt lat="44.35061" lon="2.58903">
        <ele>548.038</ele>
        <time>2013-12-10T12:57:42Z</time>
      </trkpt>
      <trkpt lat="44.3506" lon="2.58915">
        <ele>550.819</ele>
        <time>2013-12-10T12:57:46Z</time>
      </trkpt>
      <trkpt lat="44.35056" lon="2.58932">
        <ele>549.488</ele>
        <time>2013-12-10T12:57:51Z</time>
      </trkpt>
      <trkpt lat="44.35021" lon="2.58932">
        <ele>551.098</ele>
        <time>2013-12-10T12:57:57Z</time>
      </trkpt>
      <trkpt lat="44.35016" lon="2.58939">
        <ele>557.02</ele>
        <time>2013-12-10T12:58:01Z</time>
      </trkpt>
      <trkpt lat="44.35007" lon="2.58951">
        <ele>563.922</ele>
        <time>2013-12-10T12:58:08Z</time>
      </trkpt>
      <trkpt lat="44.35005" lon="2.58954">
        <ele>565.642</ele>
        <time>2013-12-10T12:58:09Z</time>
      </trkpt>
      <trkpt lat="44.34996" lon="2.58966">
        <ele>569.602</ele>
        <time>2013-12-10T12:58:15Z</time>
      </trkpt>
      <trkpt lat="44.34989" lon="2.58975">
        <ele>575.104</ele>
        <time>2013-12-10T12:58:20Z</time>
      </trkpt>
      <trkpt lat="44.34982" lon="2.58985">
        <ele>580.033</ele>
        <time>2013-12-10T12:58:26Z</time>
      </trkpt>
      <trkpt lat="44.34979" lon="2.58989">
        <ele>580.705</ele>
        <time>2013-12-10T12:58:28Z</time>
      </trkpt>
      <trkpt lat="44.34971" lon="2.59001">
        <ele>584.972</ele>
        <time>2013-12-10T12:58:35Z</time>
      </trkpt>
      <trkpt lat="44.34963" lon="2.59013">
        <ele>587.522</ele>
        <time>2013-12-10T12:58:43Z</time>
      </trkpt>
      <trkpt lat="44.34954" lon="2.59027">
        <ele>584.38</ele>
        <time>2013-12-10T12:58:50Z</time>
      </trkpt>
      <trkpt lat="44.34947" lon="2.59038">
        <ele>584.42</ele>
        <time>2013-12-10T12:58:55Z</time>
      </trkpt>
      <trkpt lat="44.34941" lon="2.59049">
        <ele>582.45</ele>
        <time>2013-12-10T12:59:00Z</time>
      </trkpt>
      <trkpt lat="44.34931" lon="2.5907">
        <ele>580.289</ele>
        <time>2013-12-10T12:59:07Z</time>
      </trkpt>
      <trkpt lat="44.34929" lon="2.59074">
        <ele>579.949</ele>
        <time>2013-12-10T12:59:09Z</time>
      </trkpt>
      <trkpt lat="44.34925" lon="2.59086">
        <ele>578.738</ele>
        <time>2013-12-10T12:59:14Z</time>
      </trkpt>
      <trkpt lat="44.34919" lon="2.59102">
        <ele>581.079</ele>
        <time>2013-12-10T12:59:21Z</time>
      </trkpt>
      <trkpt lat="44.34917" lon="2.59111">
        <ele>580.759</ele>
        <time>2013-12-10T12:59:24Z</time>
      </trkpt>
      <trkpt lat="44.34915" lon="2.59121">
        <ele>581.79</ele>
        <time>2013-12-10T12:59:30Z</time>
      </trkpt>
      <trkpt lat="44.34913" lon="2.59124">
        <ele>583.581</ele>
        <time>2013-12-10T12:59:32Z</time>
      </trkpt>
      <trkpt lat="44.3491" lon="2.59132">
        <ele>586.622</ele>
        <time>2013-12-10T12:59:39Z</time>
      </trkpt>
      <trkpt lat="44.34908" lon="2.59135">
        <ele>587.031</ele>
        <time>2013-12-10T12:59:42Z</time>
      </trkpt>
      <trkpt lat="44.34897" lon="2.59145">
        <ele>584.88</ele>
        <time>2013-12-10T12:59:49Z</time>
      </trkpt>
      <trkpt lat="44.34889" lon="2.5915">
        <ele>584.84</ele>
        <time>2013-12-10T12:59:56Z</time>
      </trkpt>
      <trkpt lat="44.34885" lon="2.59152">
        <ele>587.691</ele>
        <time>2013-12-10T13:00:00Z</time>
      </trkpt>
      <trkpt lat="44.34882" lon="2.59154">
        <ele>591.164</ele>
        <time>2013-12-10T13:00:04Z</time>
      </trkpt>
      <trkpt lat="44.34876" lon="2.59157">
        <ele>594.194</ele>
        <time>2013-12-10T13:00:08Z</time>
      </trkpt>
      <trkpt lat="44.34865" lon="2.59161">
        <ele>595.42</ele>
        <time>2013-12-10T13:00:14Z</time>
      </trkpt>
      <trkpt lat="44.34859" lon="2.59163">
        <ele>596.62</ele>
        <time>2013-12-10T13:00:18Z</time>
      </trkpt>
      <trkpt lat="44.34859" lon="2.59174">
        <ele>597.231</ele>
        <time>2013-12-10T13:00:20Z</time>
      </trkpt>
      <trkpt lat="44.34855" lon="2.59179">
        <ele>599.711</ele>
        <time>2013-12-10T13:00:23Z</time>
      </trkpt>
      <trkpt lat="44.34845" lon="2.59174">
        <ele>608.132</ele>
        <time>2013-12-10T13:00:30Z</time>
      </trkpt>
      <trkpt lat="44.3484" lon="2.59178">
        <ele>609.093</ele>
        <time>2013-12-10T13:00:34Z</time>
      </trkpt>
      <trkpt lat="44.34833" lon="2.59184">
        <ele>607.302</ele>
        <time>2013-12-10T13:00:40Z</time>
      </trkpt>
      <trkpt lat="44.34825" lon="2.5919">
        <ele>608.802</ele>
        <time>2013-12-10T13:00:45Z</time>
      </trkpt>
      <trkpt lat="44.34822" lon="2.59192">
        <ele>609.131</ele>
        <time>2013-12-10T13:00:48Z</time>
      </trkpt>
      <trkpt lat="44.34811" lon="2.59202">
        <ele>610.63</ele>
        <time>2013-12-10T13:00:54Z</time>
      </trkpt>
      <trkpt lat="44.34807" lon="2.59207">
        <ele>613.39</ele>
        <time>2013-12-10T13:00:57Z</time>
      </trkpt>
      <trkpt lat="44.34798" lon="2.5923">
        <ele>611.83</ele>
        <time>2013-12-10T13:01:04Z</time>
      </trkpt>
      <trkpt lat="44.34797" lon="2.59237">
        <ele>612.15</ele>
        <time>2013-12-10T13:01:08Z</time>
      </trkpt>
      <trkpt lat="44.34795" lon="2.59242">
        <ele>613.991</ele>
        <time>2013-12-10T13:01:11Z</time>
      </trkpt>
      <trkpt lat="44.34788" lon="2.59257">
        <ele>613.26</ele>
        <time>2013-12-10T13:01:17Z</time>
      </trkpt>
      <trkpt lat="44.3478" lon="2.59265">
        <ele>614.61</ele>
        <time>2013-12-10T13:01:21Z</time>
      </trkpt>
      <trkpt lat="44.34778" lon="2.59267">
        <ele>615.771</ele>
        <time>2013-12-10T13:01:25Z</time>
      </trkpt>
      <trkpt lat="44.34772" lon="2.59273">
        <ele>613.5</ele>
        <time>2013-12-10T13:01:28Z</time>
      </trkpt>
      <trkpt lat="44.34767" lon="2.59278">
        <ele>611.679</ele>
        <time>2013-12-10T13:01:32Z</time>
      </trkpt>
      <trkpt lat="44.34755" lon="2.59284">
        <ele>607.017</ele>
        <time>2013-12-10T13:01:36Z</time>
      </trkpt>
      <trkpt lat="44.34742" lon="2.59289">
        <ele>605.677</ele>
        <time>2013-12-10T13:01:42Z</time>
      </trkpt>
      <trkpt lat="44.34733" lon="2.59294">
        <ele>602.886</ele>
        <time>2013-12-10T13:01:47Z</time>
      </trkpt>
      <trkpt lat="44.34723" lon="2.593">
        <ele>601.897</ele>
        <time>2013-12-10T13:01:53Z</time>
      </trkpt>
      <trkpt lat="44.3472" lon="2.59314">
        <ele>606.73</ele>
        <time>2013-12-10T13:02:01Z</time>
      </trkpt>
      <trkpt lat="44.34724" lon="2.59325">
        <ele>610.83</ele>
        <time>2013-12-10T13:02:07Z</time>
      </trkpt>
      <trkpt lat="44.34728" lon="2.59333">
        <ele>612.409</ele>
        <time>2013-12-10T13:02:12Z</time>
      </trkpt>
      <trkpt lat="44.34735" lon="2.59343">
        <ele>615.58</ele>
        <time>2013-12-10T13:02:18Z</time>
      </trkpt>
      <trkpt lat="44.34743" lon="2.59353">
        <ele>617.82</ele>
        <time>2013-12-10T13:02:23Z</time>
      </trkpt>
      <trkpt lat="44.34746" lon="2.5936">
        <ele>621.13</ele>
        <time>2013-12-10T13:02:29Z</time>
      </trkpt>
      <trkpt lat="44.34753" lon="2.59381">
        <ele>622.36</ele>
        <time>2013-12-10T13:02:37Z</time>
      </trkpt>
      <trkpt lat="44.34756" lon="2.594">
        <ele>627.422</ele>
        <time>2013-12-10T13:02:44Z</time>
      </trkpt>
      <trkpt lat="44.34757" lon="2.59415">
        <ele>630.011</ele>
        <time>2013-12-10T13:02:49Z</time>
      </trkpt>
      <trkpt lat="44.34754" lon="2.59426">
        <ele>633.502</ele>
        <time>2013-12-10T13:02:54Z</time>
      </trkpt>
      <trkpt lat="44.34753" lon="2.59432">
        <ele>634.512</ele>
        <time>2013-12-10T13:02:56Z</time>
      </trkpt>
      <trkpt lat="44.34747" lon="2.59446">
        <ele>637.542</ele>
        <time>2013-12-10T13:03:03Z</time>
      </trkpt>
      <trkpt lat="44.34742" lon="2.59457">
        <ele>638.802</ele>
        <time>2013-12-10T13:03:08Z</time>
      </trkpt>
      <trkpt lat="44.34739" lon="2.59461">
        <ele>640.174</ele>
        <time>2013-12-10T13:03:10Z</time>
      </trkpt>
      <trkpt lat="44.34733" lon="2.59473">
        <ele>639.931</ele>
        <time>2013-12-10T13:03:15Z</time>
      </trkpt>
      <trkpt lat="44.34723" lon="2.59487">
        <ele>637.97</ele>
        <time>2013-12-10T13:03:22Z</time>
      </trkpt>
      <trkpt lat="44.34717" lon="2.59503">
        <ele>635.531</ele>
        <time>2013-12-10T13:03:28Z</time>
      </trkpt>
      <trkpt lat="44.34711" lon="2.59518">
        <ele>635.56</ele>
        <time>2013-12-10T13:03:34Z</time>
      </trkpt>
      <trkpt lat="44.34703" lon="2.59531">
        <ele>634.42</ele>
        <time>2013-12-10T13:03:39Z</time>
      </trkpt>
      <trkpt lat="44.34696" lon="2.5955">
        <ele>633.17</ele>
        <time>2013-12-10T13:03:45Z</time>
      </trkpt>
      <trkpt lat="44.34689" lon="2.59573">
        <ele>633.31</ele>
        <time>2013-12-10T13:03:52Z</time>
      </trkpt>
      <trkpt lat="44.34682" lon="2.59595">
        <ele>632.39</ele>
        <time>2013-12-10T13:03:59Z</time>
      </trkpt>
      <trkpt lat="44.34674" lon="2.59628">
        <ele>629.619</ele>
        <time>2013-12-10T13:04:08Z</time>
      </trkpt>
      <trkpt lat="44.34667" lon="2.59658">
        <ele>626.288</ele>
        <time>2013-12-10T13:04:16Z</time>
      </trkpt>
      <trkpt lat="44.34659" lon="2.59683">
        <ele>625.658</ele>
        <time>2013-12-10T13:04:23Z</time>
      </trkpt>
      <trkpt lat="44.34649" lon="2.5971">
        <ele>625.148</ele>
        <time>2013-12-10T13:04:31Z</time>
      </trkpt>
      <trkpt lat="44.34642" lon="2.59729">
        <ele>625.428</ele>
        <time>2013-12-10T13:04:37Z</time>
      </trkpt>
      <trkpt lat="44.34636" lon="2.59746">
        <ele>626.219</ele>
        <time>2013-12-10T13:04:42Z</time>
      </trkpt>
      <trkpt lat="44.3463" lon="2.59763">
        <ele>626.969</ele>
        <time>2013-12-10T13:04:47Z</time>
      </trkpt>
      <trkpt lat="44.34623" lon="2.59783">
        <ele>631.311</ele>
        <time>2013-12-10T13:04:53Z</time>
      </trkpt>
      <trkpt lat="44.34618" lon="2.59799">
        <ele>633.34</ele>
        <time>2013-12-10T13:04:58Z</time>
      </trkpt>
      <trkpt lat="44.34611" lon="2.59819">
        <ele>634.852</ele>
        <time>2013-12-10T13:05:04Z</time>
      </trkpt>
      <trkpt lat="44.34605" lon="2.59836">
        <ele>634.821</ele>
        <time>2013-12-10T13:05:09Z</time>
      </trkpt>
      <trkpt lat="44.346" lon="2.59852">
        <ele>634.991</ele>
        <time>2013-12-10T13:05:14Z</time>
      </trkpt>
      <trkpt lat="44.34599" lon="2.59855">
        <ele>635.441</ele>
        <time>2013-12-10T13:05:15Z</time>
      </trkpt>
      <trkpt lat="44.34593" lon="2.5987">
        <ele>634.299</ele>
        <time>2013-12-10T13:05:21Z</time>
      </trkpt>
      <trkpt lat="44.34584" lon="2.59894">
        <ele>632.47</ele>
        <time>2013-12-10T13:05:28Z</time>
      </trkpt>
      <trkpt lat="44.34578" lon="2.59911">
        <ele>632.479</ele>
        <time>2013-12-10T13:05:33Z</time>
      </trkpt>
      <trkpt lat="44.34577" lon="2.59914">
        <ele>632.429</ele>
        <time>2013-12-10T13:05:34Z</time>
      </trkpt>
      <trkpt lat="44.34569" lon="2.59933">
        <ele>632.159</ele>
        <time>2013-12-10T13:05:40Z</time>
      </trkpt>
      <trkpt lat="44.34565" lon="2.59943">
        <ele>631.119</ele>
        <time>2013-12-10T13:05:43Z</time>
      </trkpt>
      <trkpt lat="44.34554" lon="2.59967">
        <ele>629.78</ele>
        <time>2013-12-10T13:05:50Z</time>
      </trkpt>
      <trkpt lat="44.34547" lon="2.59982">
        <ele>630.84</ele>
        <time>2013-12-10T13:05:55Z</time>
      </trkpt>
      <trkpt lat="44.34541" lon="2.60001">
        <ele>630.68</ele>
        <time>2013-12-10T13:06:00Z</time>
      </trkpt>
      <trkpt lat="44.34536" lon="2.60017">
        <ele>628.74</ele>
        <time>2013-12-10T13:06:05Z</time>
      </trkpt>
      <trkpt lat="44.34531" lon="2.60031">
        <ele>629.47</ele>
        <time>2013-12-10T13:06:09Z</time>
      </trkpt>
      <trkpt lat="44.34523" lon="2.60059">
        <ele>626.948</ele>
        <time>2013-12-10T13:06:16Z</time>
      </trkpt>
      <trkpt lat="44.34518" lon="2.60081">
        <ele>627.319</ele>
        <time>2013-12-10T13:06:22Z</time>
      </trkpt>
      <trkpt lat="44.34511" lon="2.60107">
        <ele>627.95</ele>
        <time>2013-12-10T13:06:29Z</time>
      </trkpt>
      <trkpt lat="44.34503" lon="2.60134">
        <ele>627.809</ele>
        <time>2013-12-10T13:06:36Z</time>
      </trkpt>
      <trkpt lat="44.34497" lon="2.60156">
        <ele>628.99</ele>
        <time>2013-12-10T13:06:42Z</time>
      </trkpt>
      <trkpt lat="44.34488" lon="2.60181">
        <ele>630.2</ele>
        <time>2013-12-10T13:06:49Z</time>
      </trkpt>
      <trkpt lat="44.34481" lon="2.60202">
        <ele>631.181</ele>
        <time>2013-12-10T13:06:55Z</time>
      </trkpt>
      <trkpt lat="44.34475" lon="2.60217">
        <ele>633.102</ele>
        <time>2013-12-10T13:07:01Z</time>
      </trkpt>
      <trkpt lat="44.34468" lon="2.60226">
        <ele>634.811</ele>
        <time>2013-12-10T13:07:08Z</time>
      </trkpt>
      <trkpt lat="44.34474" lon="2.60266">
        <ele>635.121</ele>
        <time>2013-12-10T13:07:14Z</time>
      </trkpt>
      <trkpt lat="44.34478" lon="2.60294">
        <ele>629.898</ele>
        <time>2013-12-10T13:07:20Z</time>
      </trkpt>
      <trkpt lat="44.34482" lon="2.60324">
        <ele>626.388</ele>
        <time>2013-12-10T13:07:27Z</time>
      </trkpt>
      <trkpt lat="44.3449" lon="2.60364">
        <ele>624.459</ele>
        <time>2013-12-10T13:07:37Z</time>
      </trkpt>
      <trkpt lat="44.34496" lon="2.6039">
        <ele>623.719</ele>
        <time>2013-12-10T13:07:44Z</time>
      </trkpt>
      <trkpt lat="44.345" lon="2.60414">
        <ele>623.559</ele>
        <time>2013-12-10T13:07:50Z</time>
      </trkpt>
      <trkpt lat="44.34504" lon="2.60433">
        <ele>626.19</ele>
        <time>2013-12-10T13:07:56Z</time>
      </trkpt>
      <trkpt lat="44.34508" lon="2.60456">
        <ele>626.659</ele>
        <time>2013-12-10T13:08:02Z</time>
      </trkpt>
      <trkpt lat="44.34513" lon="2.60483">
        <ele>627.049</ele>
        <time>2013-12-10T13:08:09Z</time>
      </trkpt>
      <trkpt lat="44.34521" lon="2.60519">
        <ele>626.889</ele>
        <time>2013-12-10T13:08:18Z</time>
      </trkpt>
      <trkpt lat="44.34527" lon="2.60545">
        <ele>630.119</ele>
        <time>2013-12-10T13:08:25Z</time>
      </trkpt>
      <trkpt lat="44.34534" lon="2.60571">
        <ele>632.35</ele>
        <time>2013-12-10T13:08:32Z</time>
      </trkpt>
      <trkpt lat="44.3454" lon="2.60599">
        <ele>634.04</ele>
        <time>2013-12-10T13:08:40Z</time>
      </trkpt>
      <trkpt lat="44.34544" lon="2.6062">
        <ele>634</ele>
        <time>2013-12-10T13:08:46Z</time>
      </trkpt>
      <trkpt lat="44.34547" lon="2.60636">
        <ele>633.11</ele>
        <time>2013-12-10T13:08:51Z</time>
      </trkpt>
      <trkpt lat="44.34551" lon="2.60656">
        <ele>633.41</ele>
        <time>2013-12-10T13:08:57Z</time>
      </trkpt>
      <trkpt lat="44.34533" lon="2.60673">
        <ele>633.66</ele>
        <time>2013-12-10T13:09:02Z</time>
      </trkpt>
      <trkpt lat="44.34525" lon="2.60685">
        <ele>638.042</ele>
        <time>2013-12-10T13:09:07Z</time>
      </trkpt>
      <trkpt lat="44.34518" lon="2.60694">
        <ele>642.003</ele>
        <time>2013-12-10T13:09:11Z</time>
      </trkpt>
      <trkpt lat="44.34508" lon="2.60707">
        <ele>643.473</ele>
        <time>2013-12-10T13:09:17Z</time>
      </trkpt>
      <trkpt lat="44.34504" lon="2.60711">
        <ele>643.372</ele>
        <time>2013-12-10T13:09:19Z</time>
      </trkpt>
      <trkpt lat="44.34486" lon="2.60738">
        <ele>644.692</ele>
        <time>2013-12-10T13:09:27Z</time>
      </trkpt>
      <trkpt lat="44.3448" lon="2.60751">
        <ele>644.883</ele>
        <time>2013-12-10T13:09:30Z</time>
      </trkpt>
      <trkpt lat="44.34472" lon="2.60774">
        <ele>645.813</ele>
        <time>2013-12-10T13:09:36Z</time>
      </trkpt>
      <trkpt lat="44.34465" lon="2.60799">
        <ele>646.482</ele>
        <time>2013-12-10T13:09:42Z</time>
      </trkpt>
      <trkpt lat="44.3446" lon="2.60818">
        <ele>645.612</ele>
        <time>2013-12-10T13:09:47Z</time>
      </trkpt>
      <trkpt lat="44.3446" lon="2.60821">
        <ele>644.487</ele>
        <time>2013-12-10T13:09:50Z</time>
      </trkpt>
      <trkpt lat="44.34453" lon="2.60846">
        <ele>641.79</ele>
        <time>2013-12-10T13:09:59Z</time>
      </trkpt>
      <trkpt lat="44.34451" lon="2.60853">
        <ele>643.231</ele>
        <time>2013-12-10T13:10:01Z</time>
      </trkpt>
      <trkpt lat="44.34448" lon="2.60866">
        <ele>644.882</ele>
        <time>2013-12-10T13:10:06Z</time>
      </trkpt>
      <trkpt lat="44.34447" lon="2.6087">
        <ele>644.001</ele>
        <time>2013-12-10T13:10:11Z</time>
      </trkpt>
      <trkpt lat="44.34438" lon="2.60904">
        <ele>641.49</ele>
        <time>2013-12-10T13:10:16Z</time>
      </trkpt>
      <trkpt lat="44.34435" lon="2.60918">
        <ele>638.809</ele>
        <time>2013-12-10T13:10:20Z</time>
      </trkpt>
      <trkpt lat="44.34429" lon="2.60951">
        <ele>634.808</ele>
        <time>2013-12-10T13:10:27Z</time>
      </trkpt>
      <trkpt lat="44.34423" lon="2.60981">
        <ele>631.819</ele>
        <time>2013-12-10T13:10:34Z</time>
      </trkpt>
      <trkpt lat="44.34419" lon="2.61002">
        <ele>632.99</ele>
        <time>2013-12-10T13:10:39Z</time>
      </trkpt>
      <trkpt lat="44.34414" lon="2.61026">
        <ele>631.08</ele>
        <time>2013-12-10T13:10:45Z</time>
      </trkpt>
      <trkpt lat="44.34413" lon="2.61032">
        <ele>631.31</ele>
        <time>2013-12-10T13:10:47Z</time>
      </trkpt>
      <trkpt lat="44.34409" lon="2.61047">
        <ele>634.391</ele>
        <time>2013-12-10T13:10:53Z</time>
      </trkpt>
      <trkpt lat="44.34405" lon="2.61062">
        <ele>634.271</ele>
        <time>2013-12-10T13:10:57Z</time>
      </trkpt>
      <trkpt lat="44.34399" lon="2.61083">
        <ele>633.911</ele>
        <time>2013-12-10T13:11:03Z</time>
      </trkpt>
      <trkpt lat="44.34393" lon="2.61102">
        <ele>633.35</ele>
        <time>2013-12-10T13:11:08Z</time>
      </trkpt>
      <trkpt lat="44.34387" lon="2.61124">
        <ele>632.89</ele>
        <time>2013-12-10T13:11:14Z</time>
      </trkpt>
      <trkpt lat="44.3438" lon="2.61145">
        <ele>631.321</ele>
        <time>2013-12-10T13:11:20Z</time>
      </trkpt>
      <trkpt lat="44.34378" lon="2.61152">
        <ele>631.591</ele>
        <time>2013-12-10T13:11:22Z</time>
      </trkpt>
      <trkpt lat="44.3437" lon="2.61178">
        <ele>630.76</ele>
        <time>2013-12-10T13:11:29Z</time>
      </trkpt>
      <trkpt lat="44.34364" lon="2.612">
        <ele>628.72</ele>
        <time>2013-12-10T13:11:36Z</time>
      </trkpt>
      <trkpt lat="44.34358" lon="2.61217">
        <ele>625.1</ele>
        <time>2013-12-10T13:11:41Z</time>
      </trkpt>
      <trkpt lat="44.34354" lon="2.6123">
        <ele>624.82</ele>
        <time>2013-12-10T13:11:45Z</time>
      </trkpt>
      <trkpt lat="44.34349" lon="2.61247">
        <ele>624.672</ele>
        <time>2013-12-10T13:11:51Z</time>
      </trkpt>
      <trkpt lat="44.34345" lon="2.61262">
        <ele>626.092</ele>
        <time>2013-12-10T13:11:56Z</time>
      </trkpt>
      <trkpt lat="44.34344" lon="2.61264">
        <ele>628.862</ele>
        <time>2013-12-10T13:12:01Z</time>
      </trkpt>
      <trkpt lat="44.34344" lon="2.61264">
        <ele>629.942</ele>
        <time>2013-12-10T13:12:07Z</time>
      </trkpt>
      <trkpt lat="44.34344" lon="2.61264">
        <ele>628.752</ele>
        <time>2013-12-10T13:12:13Z</time>
      </trkpt>
      <trkpt lat="44.34344" lon="2.61264">
        <ele>627.292</ele>
        <time>2013-12-10T13:12:18Z</time>
      </trkpt>
      <trkpt lat="44.34344" lon="2.61264">
        <ele>627.713</ele>
        <time>2013-12-10T13:12:23Z</time>
      </trkpt>
      <trkpt lat="44.34319" lon="2.61348">
        <ele>634.746</ele>
        <time>2013-12-10T13:12:28Z</time>
      </trkpt>
      <trkpt lat="44.34313" lon="2.61357">
        <ele>641.555</ele>
        <time>2013-12-10T13:12:33Z</time>
      </trkpt>
      <trkpt lat="44.34285" lon="2.61379">
        <ele>646.595</ele>
        <time>2013-12-10T13:12:39Z</time>
      </trkpt>
      <trkpt lat="44.34285" lon="2.61382">
        <ele>648.914</ele>
        <time>2013-12-10T13:12:42Z</time>
      </trkpt>
      <trkpt lat="44.34286" lon="2.61383">
        <ele>648.933</ele>
        <time>2013-12-10T13:12:45Z</time>
      </trkpt>
      <trkpt lat="44.34287" lon="2.61387">
        <ele>653.403</ele>
        <time>2013-12-10T13:12:50Z</time>
      </trkpt>
      <trkpt lat="44.34288" lon="2.6139">
        <ele>652.251</ele>
        <time>2013-12-10T13:12:56Z</time>
      </trkpt>
      <trkpt lat="44.34239" lon="2.61393">
        <ele>633.671</ele>
        <time>2013-12-10T13:13:10Z</time>
      </trkpt>
      <trkpt lat="44.34233" lon="2.61397">
        <ele>632.99</ele>
        <time>2013-12-10T13:13:14Z</time>
      </trkpt>
      <trkpt lat="44.34217" lon="2.61408">
        <ele>633.891</ele>
        <time>2013-12-10T13:13:23Z</time>
      </trkpt>
      <trkpt lat="44.34205" lon="2.61417">
        <ele>634.192</ele>
        <time>2013-12-10T13:13:29Z</time>
      </trkpt>
      <trkpt lat="44.34185" lon="2.61446">
        <ele>629.37</ele>
        <time>2013-12-10T13:13:36Z</time>
      </trkpt>
      <trkpt lat="44.34186" lon="2.61477">
        <ele>618.599</ele>
        <time>2013-12-10T13:13:42Z</time>
      </trkpt>
      <trkpt lat="44.34188" lon="2.61506">
        <ele>611.799</ele>
        <time>2013-12-10T13:13:48Z</time>
      </trkpt>
      <trkpt lat="44.34187" lon="2.61534">
        <ele>610.14</ele>
        <time>2013-12-10T13:13:54Z</time>
      </trkpt>
      <trkpt lat="44.34183" lon="2.6155">
        <ele>607.27</ele>
        <time>2013-12-10T13:13:59Z</time>
      </trkpt>
      <trkpt lat="44.34181" lon="2.61564">
        <ele>607.04</ele>
        <time>2013-12-10T13:14:05Z</time>
      </trkpt>
      <trkpt lat="44.34181" lon="2.6157">
        <ele>607.111</ele>
        <time>2013-12-10T13:14:07Z</time>
      </trkpt>
      <trkpt lat="44.34181" lon="2.61583">
        <ele>609.192</ele>
        <time>2013-12-10T13:14:11Z</time>
      </trkpt>
      <trkpt lat="44.34179" lon="2.6161">
        <ele>611.622</ele>
        <time>2013-12-10T13:14:19Z</time>
      </trkpt>
      <trkpt lat="44.34175" lon="2.61636">
        <ele>613.182</ele>
        <time>2013-12-10T13:14:27Z</time>
      </trkpt>
      <trkpt lat="44.3417" lon="2.61663">
        <ele>614.211</ele>
        <time>2013-12-10T13:14:35Z</time>
      </trkpt>
      <trkpt lat="44.34164" lon="2.61687">
        <ele>615.802</ele>
        <time>2013-12-10T13:14:42Z</time>
      </trkpt>
      <trkpt lat="44.34159" lon="2.61706">
        <ele>617.692</ele>
        <time>2013-12-10T13:14:48Z</time>
      </trkpt>
      <trkpt lat="44.34152" lon="2.61723">
        <ele>619.642</ele>
        <time>2013-12-10T13:14:54Z</time>
      </trkpt>
      <trkpt lat="44.34141" lon="2.61745">
        <ele>621.572</ele>
        <time>2013-12-10T13:15:02Z</time>
      </trkpt>
      <trkpt lat="44.34132" lon="2.6176">
        <ele>623.072</ele>
        <time>2013-12-10T13:15:08Z</time>
      </trkpt>
      <trkpt lat="44.34121" lon="2.61774">
        <ele>624.211</ele>
        <time>2013-12-10T13:15:14Z</time>
      </trkpt>
      <trkpt lat="44.34108" lon="2.61788">
        <ele>625.914</ele>
        <time>2013-12-10T13:15:21Z</time>
      </trkpt>
      <trkpt lat="44.34097" lon="2.61799">
        <ele>627.112</ele>
        <time>2013-12-10T13:15:27Z</time>
      </trkpt>
      <trkpt lat="44.34095" lon="2.618">
        <ele>625.823</ele>
        <time>2013-12-10T13:15:31Z</time>
      </trkpt>
      <trkpt lat="44.34088" lon="2.61808">
        <ele>622.03</ele>
        <time>2013-12-10T13:15:37Z</time>
      </trkpt>
      <trkpt lat="44.34077" lon="2.61825">
        <ele>623.391</ele>
        <time>2013-12-10T13:15:45Z</time>
      </trkpt>
      <trkpt lat="44.34071" lon="2.61835">
        <ele>625.152</ele>
        <time>2013-12-10T13:15:51Z</time>
      </trkpt>
      <trkpt lat="44.34058" lon="2.61866">
        <ele>626.312</ele>
        <time>2013-12-10T13:15:58Z</time>
      </trkpt>
      <trkpt lat="44.3405" lon="2.61891">
        <ele>627.702</ele>
        <time>2013-12-10T13:16:05Z</time>
      </trkpt>
      <trkpt lat="44.34041" lon="2.61913">
        <ele>628.982</ele>
        <time>2013-12-10T13:16:12Z</time>
      </trkpt>
      <trkpt lat="44.34035" lon="2.6193">
        <ele>630.762</ele>
        <time>2013-12-10T13:16:18Z</time>
      </trkpt>
      <trkpt lat="44.34028" lon="2.61948">
        <ele>632.022</ele>
        <time>2013-12-10T13:16:24Z</time>
      </trkpt>
      <trkpt lat="44.34021" lon="2.61968">
        <ele>633.932</ele>
        <time>2013-12-10T13:16:31Z</time>
      </trkpt>
      <trkpt lat="44.34016" lon="2.61983">
        <ele>633.661</ele>
        <time>2013-12-10T13:16:36Z</time>
      </trkpt>
      <trkpt lat="44.34009" lon="2.62005">
        <ele>635.191</ele>
        <time>2013-12-10T13:16:43Z</time>
      </trkpt>
      <trkpt lat="44.34001" lon="2.62034">
        <ele>637.432</ele>
        <time>2013-12-10T13:16:52Z</time>
      </trkpt>
      <trkpt lat="44.33996" lon="2.62053">
        <ele>638.362</ele>
        <time>2013-12-10T13:16:58Z</time>
      </trkpt>
      <trkpt lat="44.3399" lon="2.62072">
        <ele>639.071</ele>
        <time>2013-12-10T13:17:04Z</time>
      </trkpt>
      <trkpt lat="44.33983" lon="2.62103">
        <ele>640.181</ele>
        <time>2013-12-10T13:17:13Z</time>
      </trkpt>
      <trkpt lat="44.33976" lon="2.62129">
        <ele>641.161</ele>
        <time>2013-12-10T13:17:21Z</time>
      </trkpt>
      <trkpt lat="44.33972" lon="2.62148">
        <ele>642.091</ele>
        <time>2013-12-10T13:17:27Z</time>
      </trkpt>
      <trkpt lat="44.33967" lon="2.6217">
        <ele>642.651</ele>
        <time>2013-12-10T13:17:34Z</time>
      </trkpt>
      <trkpt lat="44.33961" lon="2.62191">
        <ele>644.411</ele>
        <time>2013-12-10T13:17:41Z</time>
      </trkpt>
      <trkpt lat="44.33952" lon="2.62213">
        <ele>645.711</ele>
        <time>2013-12-10T13:17:49Z</time>
      </trkpt>
      <trkpt lat="44.33942" lon="2.62233">
        <ele>647.422</ele>
        <time>2013-12-10T13:17:57Z</time>
      </trkpt>
      <trkpt lat="44.33931" lon="2.62254">
        <ele>648.531</ele>
        <time>2013-12-10T13:18:05Z</time>
      </trkpt>
      <trkpt lat="44.33925" lon="2.62276">
        <ele>649.622</ele>
        <time>2013-12-10T13:18:12Z</time>
      </trkpt>
      <trkpt lat="44.33923" lon="2.62303">
        <ele>650.821</ele>
        <time>2013-12-10T13:18:20Z</time>
      </trkpt>
      <trkpt lat="44.33925" lon="2.62332">
        <ele>652.341</ele>
        <time>2013-12-10T13:18:29Z</time>
      </trkpt>
      <trkpt lat="44.33928" lon="2.62353">
        <ele>653.861</ele>
        <time>2013-12-10T13:18:36Z</time>
      </trkpt>
      <trkpt lat="44.33929" lon="2.62363">
        <ele>653.811</ele>
        <time>2013-12-10T13:18:43Z</time>
      </trkpt>
      <trkpt lat="44.3393" lon="2.62375">
        <ele>654.091</ele>
        <time>2013-12-10T13:18:51Z</time>
      </trkpt>
      <trkpt lat="44.33932" lon="2.62402">
        <ele>655.302</ele>
        <time>2013-12-10T13:19:00Z</time>
      </trkpt>
      <trkpt lat="44.33928" lon="2.62428">
        <ele>656.732</ele>
        <time>2013-12-10T13:19:08Z</time>
      </trkpt>
      <trkpt lat="44.33925" lon="2.62446">
        <ele>658.353</ele>
        <time>2013-12-10T13:19:15Z</time>
      </trkpt>
      <trkpt lat="44.3393" lon="2.6246">
        <ele>659.673</ele>
        <time>2013-12-10T13:19:22Z</time>
      </trkpt>
      <trkpt lat="44.33909" lon="2.62478">
        <ele>661.374</ele>
        <time>2013-12-10T13:19:28Z</time>
      </trkpt>
      <trkpt lat="44.33897" lon="2.62494">
        <ele>664.032</ele>
        <time>2013-12-10T13:19:36Z</time>
      </trkpt>
      <trkpt lat="44.33887" lon="2.6251">
        <ele>666.481</ele>
        <time>2013-12-10T13:19:43Z</time>
      </trkpt>
      <trkpt lat="44.33877" lon="2.62527">
        <ele>668.413</ele>
        <time>2013-12-10T13:19:50Z</time>
      </trkpt>
      <trkpt lat="44.3387" lon="2.62544">
        <ele>669.643</ele>
        <time>2013-12-10T13:19:56Z</time>
      </trkpt>
      <trkpt lat="44.33862" lon="2.62558">
        <ele>671.745</ele>
        <time>2013-12-10T13:20:02Z</time>
      </trkpt>
      <trkpt lat="44.33857" lon="2.62567">
        <ele>673.025</ele>
        <time>2013-12-10T13:20:06Z</time>
      </trkpt>
      <trkpt lat="44.33844" lon="2.6258">
        <ele>672.933</ele>
        <time>2013-12-10T13:20:12Z</time>
      </trkpt>
      <trkpt lat="44.33832" lon="2.62587">
        <ele>671.152</ele>
        <time>2013-12-10T13:20:17Z</time>
      </trkpt>
      <trkpt lat="44.33827" lon="2.62589">
        <ele>671.473</ele>
        <time>2013-12-10T13:20:19Z</time>
      </trkpt>
      <trkpt lat="44.33833" lon="2.62586">
        <ele>672.726</ele>
        <time>2013-12-10T13:20:23Z</time>
      </trkpt>
      <trkpt lat="44.33823" lon="2.62622">
        <ele>675.314</ele>
        <time>2013-12-10T13:20:28Z</time>
      </trkpt>
      <trkpt lat="44.33824" lon="2.62634">
        <ele>674.402</ele>
        <time>2013-12-10T13:20:33Z</time>
      </trkpt>
      <trkpt lat="44.33818" lon="2.6264">
        <ele>674.912</ele>
        <time>2013-12-10T13:20:36Z</time>
      </trkpt>
      <trkpt lat="44.33805" lon="2.62651">
        <ele>676.815</ele>
        <time>2013-12-10T13:20:43Z</time>
      </trkpt>
      <trkpt lat="44.33795" lon="2.62667">
        <ele>676.503</ele>
        <time>2013-12-10T13:20:48Z</time>
      </trkpt>
      <trkpt lat="44.33791" lon="2.62678">
        <ele>672.342</ele>
        <time>2013-12-10T13:20:52Z</time>
      </trkpt>
      <trkpt lat="44.33806" lon="2.62718">
        <ele>669.992</ele>
        <time>2013-12-10T13:21:01Z</time>
      </trkpt>
      <trkpt lat="44.33813" lon="2.62731">
        <ele>670.985</ele>
        <time>2013-12-10T13:21:06Z</time>
      </trkpt>
      <trkpt lat="44.33826" lon="2.62757">
        <ele>670.043</ele>
        <time>2013-12-10T13:21:14Z</time>
      </trkpt>
      <trkpt lat="44.33836" lon="2.62776">
        <ele>670.173</ele>
        <time>2013-12-10T13:21:20Z</time>
      </trkpt>
      <trkpt lat="44.3385" lon="2.62799">
        <ele>667.451</ele>
        <time>2013-12-10T13:21:27Z</time>
      </trkpt>
      <trkpt lat="44.33864" lon="2.62823">
        <ele>665.191</ele>
        <time>2013-12-10T13:21:34Z</time>
      </trkpt>
      <trkpt lat="44.33872" lon="2.6284">
        <ele>663.359</ele>
        <time>2013-12-10T13:21:39Z</time>
      </trkpt>
      <trkpt lat="44.33881" lon="2.62863">
        <ele>663.073</ele>
        <time>2013-12-10T13:21:45Z</time>
      </trkpt>
      <trkpt lat="44.33883" lon="2.62881">
        <ele>663.553</ele>
        <time>2013-12-10T13:21:50Z</time>
      </trkpt>
      <trkpt lat="44.33883" lon="2.62903">
        <ele>663.932</ele>
        <time>2013-12-10T13:21:56Z</time>
      </trkpt>
      <trkpt lat="44.33878" lon="2.62926">
        <ele>663.661</ele>
        <time>2013-12-10T13:22:02Z</time>
      </trkpt>
      <trkpt lat="44.33876" lon="2.62938">
        <ele>665.885</ele>
        <time>2013-12-10T13:22:08Z</time>
      </trkpt>
      <trkpt lat="44.33868" lon="2.62969">
        <ele>667.094</ele>
        <time>2013-12-10T13:22:14Z</time>
      </trkpt>
      <trkpt lat="44.33862" lon="2.63001">
        <ele>667.435</ele>
        <time>2013-12-10T13:22:22Z</time>
      </trkpt>
      <trkpt lat="44.33856" lon="2.63025">
        <ele>668.477</ele>
        <time>2013-12-10T13:22:29Z</time>
      </trkpt>
      <trkpt lat="44.33851" lon="2.63046">
        <ele>668.002</ele>
        <time>2013-12-10T13:22:35Z</time>
      </trkpt>
      <trkpt lat="44.33845" lon="2.63069">
        <ele>668.014</ele>
        <time>2013-12-10T13:22:41Z</time>
      </trkpt>
      <trkpt lat="44.3384" lon="2.63094">
        <ele>667.694</ele>
        <time>2013-12-10T13:22:48Z</time>
      </trkpt>
      <trkpt lat="44.33835" lon="2.6312">
        <ele>667.936</ele>
        <time>2013-12-10T13:22:55Z</time>
      </trkpt>
      <trkpt lat="44.3383" lon="2.63155">
        <ele>667.985</ele>
        <time>2013-12-10T13:23:04Z</time>
      </trkpt>
      <trkpt lat="44.33827" lon="2.63185">
        <ele>668.975</ele>
        <time>2013-12-10T13:23:12Z</time>
      </trkpt>
      <trkpt lat="44.33824" lon="2.63208">
        <ele>669.426</ele>
        <time>2013-12-10T13:23:18Z</time>
      </trkpt>
      <trkpt lat="44.33822" lon="2.63233">
        <ele>669.355</ele>
        <time>2013-12-10T13:23:25Z</time>
      </trkpt>
      <trkpt lat="44.3382" lon="2.6326">
        <ele>669.124</ele>
        <time>2013-12-10T13:23:32Z</time>
      </trkpt>
      <trkpt lat="44.3382" lon="2.63289">
        <ele>668.793</ele>
        <time>2013-12-10T13:23:40Z</time>
      </trkpt>
      <trkpt lat="44.3382" lon="2.63323">
        <ele>669.276</ele>
        <time>2013-12-10T13:23:49Z</time>
      </trkpt>
      <trkpt lat="44.3382" lon="2.63345">
        <ele>670.689</ele>
        <time>2013-12-10T13:23:55Z</time>
      </trkpt>
      <trkpt lat="44.3382" lon="2.63372">
        <ele>671.086</ele>
        <time>2013-12-10T13:24:02Z</time>
      </trkpt>
      <trkpt lat="44.3382" lon="2.63396">
        <ele>672.656</ele>
        <time>2013-12-10T13:24:09Z</time>
      </trkpt>
      <trkpt lat="44.3382" lon="2.63416">
        <ele>673.528</ele>
        <time>2013-12-10T13:24:15Z</time>
      </trkpt>
      <trkpt lat="44.33821" lon="2.63441">
        <ele>675.548</ele>
        <time>2013-12-10T13:24:23Z</time>
      </trkpt>
      <trkpt lat="44.33822" lon="2.63464">
        <ele>677.16</ele>
        <time>2013-12-10T13:24:30Z</time>
      </trkpt>
      <trkpt lat="44.33823" lon="2.6349">
        <ele>677.87</ele>
        <time>2013-12-10T13:24:37Z</time>
      </trkpt>
      <trkpt lat="44.33824" lon="2.63515">
        <ele>679.7</ele>
        <time>2013-12-10T13:24:44Z</time>
      </trkpt>
      <trkpt lat="44.33828" lon="2.63545">
        <ele>680.778</ele>
        <time>2013-12-10T13:24:52Z</time>
      </trkpt>
      <trkpt lat="44.3383" lon="2.63566">
        <ele>681.587</ele>
        <time>2013-12-10T13:24:58Z</time>
      </trkpt>
      <trkpt lat="44.33834" lon="2.63593">
        <ele>682.669</ele>
        <time>2013-12-10T13:25:06Z</time>
      </trkpt>
      <trkpt lat="44.33838" lon="2.63618">
        <ele>683.136</ele>
        <time>2013-12-10T13:25:13Z</time>
      </trkpt>
      <trkpt lat="44.33842" lon="2.63637">
        <ele>681.114</ele>
        <time>2013-12-10T13:25:19Z</time>
      </trkpt>
      <trkpt lat="44.33845" lon="2.63655">
        <ele>678.842</ele>
        <time>2013-12-10T13:25:24Z</time>
      </trkpt>
      <trkpt lat="44.33847" lon="2.63673">
        <ele>676.142</ele>
        <time>2013-12-10T13:25:32Z</time>
      </trkpt>
      <trkpt lat="44.3385" lon="2.63691">
        <ele>674.875</ele>
        <time>2013-12-10T13:25:41Z</time>
      </trkpt>
      <trkpt lat="44.3385" lon="2.63712">
        <ele>673.644</ele>
        <time>2013-12-10T13:25:50Z</time>
      </trkpt>
      <trkpt lat="44.3385" lon="2.63729">
        <ele>674.167</ele>
        <time>2013-12-10T13:25:57Z</time>
      </trkpt>
      <trkpt lat="44.3385" lon="2.63753">
        <ele>675.616</ele>
        <time>2013-12-10T13:26:05Z</time>
      </trkpt>
      <trkpt lat="44.33849" lon="2.63776">
        <ele>675.214</ele>
        <time>2013-12-10T13:26:11Z</time>
      </trkpt>
      <trkpt lat="44.33849" lon="2.63804">
        <ele>675.846</ele>
        <time>2013-12-10T13:26:18Z</time>
      </trkpt>
      <trkpt lat="44.3385" lon="2.63821">
        <ele>676.567</ele>
        <time>2013-12-10T13:26:23Z</time>
      </trkpt>
      <trkpt lat="44.33851" lon="2.63839">
        <ele>677.199</ele>
        <time>2013-12-10T13:26:28Z</time>
      </trkpt>
      <trkpt lat="44.33852" lon="2.63857">
        <ele>678.047</ele>
        <time>2013-12-10T13:26:33Z</time>
      </trkpt>
      <trkpt lat="44.33853" lon="2.63884">
        <ele>678.828</ele>
        <time>2013-12-10T13:26:40Z</time>
      </trkpt>
      <trkpt lat="44.33855" lon="2.63912">
        <ele>678.996</ele>
        <time>2013-12-10T13:26:47Z</time>
      </trkpt>
      <trkpt lat="44.33861" lon="2.63947">
        <ele>676.958</ele>
        <time>2013-12-10T13:26:55Z</time>
      </trkpt>
      <trkpt lat="44.33863" lon="2.63978">
        <ele>675.953</ele>
        <time>2013-12-10T13:27:02Z</time>
      </trkpt>
      <trkpt lat="44.33866" lon="2.64006">
        <ele>676.608</ele>
        <time>2013-12-10T13:27:09Z</time>
      </trkpt>
      <trkpt lat="44.3387" lon="2.64038">
        <ele>677.838</ele>
        <time>2013-12-10T13:27:17Z</time>
      </trkpt>
      <trkpt lat="44.33873" lon="2.64064">
        <ele>679.06</ele>
        <time>2013-12-10T13:27:24Z</time>
      </trkpt>
      <trkpt lat="44.33874" lon="2.64089">
        <ele>679.571</ele>
        <time>2013-12-10T13:27:30Z</time>
      </trkpt>
      <trkpt lat="44.33874" lon="2.64114">
        <ele>679.127</ele>
        <time>2013-12-10T13:27:36Z</time>
      </trkpt>
      <trkpt lat="44.33873" lon="2.64138">
        <ele>678.806</ele>
        <time>2013-12-10T13:27:42Z</time>
      </trkpt>
      <trkpt lat="44.33872" lon="2.64166">
        <ele>679.531</ele>
        <time>2013-12-10T13:27:49Z</time>
      </trkpt>
      <trkpt lat="44.3387" lon="2.64195">
        <ele>678.281</ele>
        <time>2013-12-10T13:27:56Z</time>
      </trkpt>
      <trkpt lat="44.33868" lon="2.64224">
        <ele>677.481</ele>
        <time>2013-12-10T13:28:03Z</time>
      </trkpt>
      <trkpt lat="44.33867" lon="2.64253">
        <ele>676.578</ele>
        <time>2013-12-10T13:28:10Z</time>
      </trkpt>
      <trkpt lat="44.33866" lon="2.64277">
        <ele>676.519</ele>
        <time>2013-12-10T13:28:16Z</time>
      </trkpt>
      <trkpt lat="44.33865" lon="2.64308">
        <ele>677.671</ele>
        <time>2013-12-10T13:28:24Z</time>
      </trkpt>
      <trkpt lat="44.33867" lon="2.64338">
        <ele>677.668</ele>
        <time>2013-12-10T13:28:32Z</time>
      </trkpt>
      <trkpt lat="44.33869" lon="2.64364">
        <ele>679.11</ele>
        <time>2013-12-10T13:28:39Z</time>
      </trkpt>
      <trkpt lat="44.3387" lon="2.64385">
        <ele>679.869</ele>
        <time>2013-12-10T13:28:45Z</time>
      </trkpt>
      <trkpt lat="44.33868" lon="2.64412">
        <ele>680.698</ele>
        <time>2013-12-10T13:28:52Z</time>
      </trkpt>
      <trkpt lat="44.33867" lon="2.64441">
        <ele>679.633</ele>
        <time>2013-12-10T13:28:59Z</time>
      </trkpt>
      <trkpt lat="44.33867" lon="2.64465">
        <ele>678.587</ele>
        <time>2013-12-10T13:29:05Z</time>
      </trkpt>
      <trkpt lat="44.33867" lon="2.64486">
        <ele>677.746</ele>
        <time>2013-12-10T13:29:10Z</time>
      </trkpt>
      <trkpt lat="44.33866" lon="2.64512">
        <ele>678.743</ele>
        <time>2013-12-10T13:29:17Z</time>
      </trkpt>
      <trkpt lat="44.33866" lon="2.64547">
        <ele>678.91</ele>
        <time>2013-12-10T13:29:26Z</time>
      </trkpt>
      <trkpt lat="44.33866" lon="2.64576">
        <ele>677.313</ele>
        <time>2013-12-10T13:29:33Z</time>
      </trkpt>
      <trkpt lat="44.33864" lon="2.64599">
        <ele>677.224</ele>
        <time>2013-12-10T13:29:39Z</time>
      </trkpt>
      <trkpt lat="44.33863" lon="2.64626">
        <ele>676.548</ele>
        <time>2013-12-10T13:29:46Z</time>
      </trkpt>
      <trkpt lat="44.33859" lon="2.64649">
        <ele>676.367</ele>
        <time>2013-12-10T13:29:53Z</time>
      </trkpt>
      <trkpt lat="44.33855" lon="2.64675">
        <ele>676.137</ele>
        <time>2013-12-10T13:30:01Z</time>
      </trkpt>
      <trkpt lat="44.33851" lon="2.64697">
        <ele>676.109</ele>
        <time>2013-12-10T13:30:07Z</time>
      </trkpt>
      <trkpt lat="44.33843" lon="2.64723">
        <ele>676.733</ele>
        <time>2013-12-10T13:30:15Z</time>
      </trkpt>
      <trkpt lat="44.33835" lon="2.64744">
        <ele>676.75</ele>
        <time>2013-12-10T13:30:22Z</time>
      </trkpt>
      <trkpt lat="44.33844" lon="2.64771">
        <ele>676.53</ele>
        <time>2013-12-10T13:30:28Z</time>
      </trkpt>
      <trkpt lat="44.33844" lon="2.64809">
        <ele>676.331</ele>
        <time>2013-12-10T13:30:36Z</time>
      </trkpt>
      <trkpt lat="44.33844" lon="2.64834">
        <ele>675.227</ele>
        <time>2013-12-10T13:30:42Z</time>
      </trkpt>
      <trkpt lat="44.33844" lon="2.64857">
        <ele>674.417</ele>
        <time>2013-12-10T13:30:48Z</time>
      </trkpt>
      <trkpt lat="44.33843" lon="2.64887">
        <ele>675.539</ele>
        <time>2013-12-10T13:30:56Z</time>
      </trkpt>
      <trkpt lat="44.3384" lon="2.64914">
        <ele>676.291</ele>
        <time>2013-12-10T13:31:03Z</time>
      </trkpt>
      <trkpt lat="44.33836" lon="2.64942">
        <ele>678.383</ele>
        <time>2013-12-10T13:31:11Z</time>
      </trkpt>
      <trkpt lat="44.33832" lon="2.64973">
        <ele>678.291</ele>
        <time>2013-12-10T13:31:19Z</time>
      </trkpt>
      <trkpt lat="44.33828" lon="2.64994">
        <ele>677.91</ele>
        <time>2013-12-10T13:31:25Z</time>
      </trkpt>
      <trkpt lat="44.33824" lon="2.65015">
        <ele>677.208</ele>
        <time>2013-12-10T13:31:31Z</time>
      </trkpt>
      <trkpt lat="44.33818" lon="2.65045">
        <ele>677.583</ele>
        <time>2013-12-10T13:31:39Z</time>
      </trkpt>
      <trkpt lat="44.33816" lon="2.65071">
        <ele>678.424</ele>
        <time>2013-12-10T13:31:46Z</time>
      </trkpt>
      <trkpt lat="44.33813" lon="2.65097">
        <ele>679.598</ele>
        <time>2013-12-10T13:31:53Z</time>
      </trkpt>
      <trkpt lat="44.33811" lon="2.65123">
        <ele>680.189</ele>
        <time>2013-12-10T13:32:00Z</time>
      </trkpt>
      <trkpt lat="44.33809" lon="2.65148">
        <ele>681.662</ele>
        <time>2013-12-10T13:32:07Z</time>
      </trkpt>
      <trkpt lat="44.33807" lon="2.65177">
        <ele>681.732</ele>
        <time>2013-12-10T13:32:15Z</time>
      </trkpt>
      <trkpt lat="44.33806" lon="2.65182">
        <ele>681.61</ele>
        <time>2013-12-10T13:32:17Z</time>
      </trkpt>
      <trkpt lat="44.33805" lon="2.65193">
        <ele>682.176</ele>
        <time>2013-12-10T13:32:22Z</time>
      </trkpt>
      <trkpt lat="44.33797" lon="2.65201">
        <ele>681.63</ele>
        <time>2013-12-10T13:32:26Z</time>
      </trkpt>
      <trkpt lat="44.33792" lon="2.65201">
        <ele>680.809</ele>
        <time>2013-12-10T13:32:28Z</time>
      </trkpt>
      <trkpt lat="44.33768" lon="2.65198">
        <ele>676.894</ele>
        <time>2013-12-10T13:32:36Z</time>
      </trkpt>
      <trkpt lat="44.33759" lon="2.65196">
        <ele>675.031</ele>
        <time>2013-12-10T13:32:40Z</time>
      </trkpt>
      <trkpt lat="44.33759" lon="2.65196">
        <ele>674.923</ele>
        <time>2013-12-10T13:32:42Z</time>
      </trkpt>
      <trkpt lat="44.33754" lon="2.65194">
        <ele>674.164</ele>
        <time>2013-12-10T13:32:55Z</time>
      </trkpt>
      <trkpt lat="44.33737" lon="2.6518">
        <ele>672.004</ele>
        <time>2013-12-10T13:33:03Z</time>
      </trkpt>
      <trkpt lat="44.33723" lon="2.65169">
        <ele>672.425</ele>
        <time>2013-12-10T13:33:10Z</time>
      </trkpt>
      <trkpt lat="44.33705" lon="2.65159">
        <ele>671.564</ele>
        <time>2013-12-10T13:33:19Z</time>
      </trkpt>
      <trkpt lat="44.33692" lon="2.65153">
        <ele>672.706</ele>
        <time>2013-12-10T13:33:27Z</time>
      </trkpt>
      <trkpt lat="44.33692" lon="2.65153">
        <ele>672.619</ele>
        <time>2013-12-10T13:33:28Z</time>
      </trkpt>
      <trkpt lat="44.33685" lon="2.6515">
        <ele>670.745</ele>
        <time>2013-12-10T13:33:38Z</time>
      </trkpt>
      <trkpt lat="44.33678" lon="2.65147">
        <ele>670.435</ele>
        <time>2013-12-10T13:33:44Z</time>
      </trkpt>
      <trkpt lat="44.33664" lon="2.65141">
        <ele>670.144</ele>
        <time>2013-12-10T13:33:51Z</time>
      </trkpt>
      <trkpt lat="44.33647" lon="2.65133">
        <ele>669.404</ele>
        <time>2013-12-10T13:33:59Z</time>
      </trkpt>
      <trkpt lat="44.3363" lon="2.65126">
        <ele>668.804</ele>
        <time>2013-12-10T13:34:07Z</time>
      </trkpt>
      <trkpt lat="44.33617" lon="2.6512">
        <ele>668.054</ele>
        <time>2013-12-10T13:34:13Z</time>
      </trkpt>
      <trkpt lat="44.33601" lon="2.65114">
        <ele>667.033</ele>
        <time>2013-12-10T13:34:19Z</time>
      </trkpt>
      <trkpt lat="44.33587" lon="2.65106">
        <ele>666.564</ele>
        <time>2013-12-10T13:34:25Z</time>
      </trkpt>
      <trkpt lat="44.33566" lon="2.65092">
        <ele>666.594</ele>
        <time>2013-12-10T13:34:34Z</time>
      </trkpt>
      <trkpt lat="44.33549" lon="2.65081">
        <ele>666.745</ele>
        <time>2013-12-10T13:34:41Z</time>
      </trkpt>
      <trkpt lat="44.33531" lon="2.65068">
        <ele>665.503</ele>
        <time>2013-12-10T13:34:48Z</time>
      </trkpt>
      <trkpt lat="44.33509" lon="2.65052">
        <ele>664.043</ele>
        <time>2013-12-10T13:34:56Z</time>
      </trkpt>
      <trkpt lat="44.3349" lon="2.65039">
        <ele>663.343</ele>
        <time>2013-12-10T13:35:03Z</time>
      </trkpt>
      <trkpt lat="44.33472" lon="2.65029">
        <ele>662.884</ele>
        <time>2013-12-10T13:35:10Z</time>
      </trkpt>
      <trkpt lat="44.33456" lon="2.65021">
        <ele>662.493</ele>
        <time>2013-12-10T13:35:16Z</time>
      </trkpt>
      <trkpt lat="44.33437" lon="2.65008">
        <ele>661.352</ele>
        <time>2013-12-10T13:35:23Z</time>
      </trkpt>
      <trkpt lat="44.33418" lon="2.64993">
        <ele>660.723</ele>
        <time>2013-12-10T13:35:30Z</time>
      </trkpt>
      <trkpt lat="44.334" lon="2.64989">
        <ele>660.313</ele>
        <time>2013-12-10T13:35:36Z</time>
      </trkpt>
      <trkpt lat="44.33379" lon="2.64983">
        <ele>659.763</ele>
        <time>2013-12-10T13:35:43Z</time>
      </trkpt>
      <trkpt lat="44.33357" lon="2.64969">
        <ele>659.433</ele>
        <time>2013-12-10T13:35:51Z</time>
      </trkpt>
      <trkpt lat="44.33338" lon="2.64957">
        <ele>659.523</ele>
        <time>2013-12-10T13:35:58Z</time>
      </trkpt>
      <trkpt lat="44.33317" lon="2.64943">
        <ele>658.892</ele>
        <time>2013-12-10T13:36:06Z</time>
      </trkpt>
      <trkpt lat="44.33308" lon="2.64933">
        <ele>658.713</ele>
        <time>2013-12-10T13:36:11Z</time>
      </trkpt>
      <trkpt lat="44.33308" lon="2.64933">
        <ele>658.601</ele>
        <time>2013-12-10T13:36:14Z</time>
      </trkpt>
      <trkpt lat="44.33302" lon="2.64927">
        <ele>658.402</ele>
        <time>2013-12-10T13:36:18Z</time>
      </trkpt>
      <trkpt lat="44.33283" lon="2.64908">
        <ele>658.303</ele>
        <time>2013-12-10T13:36:26Z</time>
      </trkpt>
      <trkpt lat="44.33267" lon="2.64892">
        <ele>657.903</ele>
        <time>2013-12-10T13:36:33Z</time>
      </trkpt>
      <trkpt lat="44.33243" lon="2.64871">
        <ele>658.173</ele>
        <time>2013-12-10T13:36:43Z</time>
      </trkpt>
      <trkpt lat="44.33221" lon="2.64856">
        <ele>657.873</ele>
        <time>2013-12-10T13:36:51Z</time>
      </trkpt>
      <trkpt lat="44.33201" lon="2.64847">
        <ele>656.511</ele>
        <time>2013-12-10T13:36:58Z</time>
      </trkpt>
      <trkpt lat="44.33177" lon="2.64845">
        <ele>654.722</ele>
        <time>2013-12-10T13:37:06Z</time>
      </trkpt>
      <trkpt lat="44.3316" lon="2.64844">
        <ele>654.792</ele>
        <time>2013-12-10T13:37:12Z</time>
      </trkpt>
      <trkpt lat="44.33139" lon="2.64843">
        <ele>654.912</ele>
        <time>2013-12-10T13:37:19Z</time>
      </trkpt>
      <trkpt lat="44.33121" lon="2.64842">
        <ele>655.452</ele>
        <time>2013-12-10T13:37:25Z</time>
      </trkpt>
      <trkpt lat="44.33097" lon="2.64842">
        <ele>655.622</ele>
        <time>2013-12-10T13:37:33Z</time>
      </trkpt>
      <trkpt lat="44.33078" lon="2.64843">
        <ele>655.412</ele>
        <time>2013-12-10T13:37:39Z</time>
      </trkpt>
      <trkpt lat="44.33058" lon="2.64847">
        <ele>654.962</ele>
        <time>2013-12-10T13:37:46Z</time>
      </trkpt>
      <trkpt lat="44.3304" lon="2.64846">
        <ele>655.542</ele>
        <time>2013-12-10T13:37:52Z</time>
      </trkpt>
      <trkpt lat="44.3302" lon="2.64842">
        <ele>655.522</ele>
        <time>2013-12-10T13:37:59Z</time>
      </trkpt>
      <trkpt lat="44.33" lon="2.64836">
        <ele>655.592</ele>
        <time>2013-12-10T13:38:06Z</time>
      </trkpt>
      <trkpt lat="44.32979" lon="2.6483">
        <ele>655.111</ele>
        <time>2013-12-10T13:38:13Z</time>
      </trkpt>
      <trkpt lat="44.32964" lon="2.64826">
        <ele>653.841</ele>
        <time>2013-12-10T13:38:18Z</time>
      </trkpt>
      <trkpt lat="44.32941" lon="2.64821">
        <ele>652.761</ele>
        <time>2013-12-10T13:38:25Z</time>
      </trkpt>
      <trkpt lat="44.3291" lon="2.64815">
        <ele>649.761</ele>
        <time>2013-12-10T13:38:34Z</time>
      </trkpt>
      <trkpt lat="44.32883" lon="2.64809">
        <ele>646.471</ele>
        <time>2013-12-10T13:38:42Z</time>
      </trkpt>
      <trkpt lat="44.32866" lon="2.64806">
        <ele>646.131</ele>
        <time>2013-12-10T13:38:48Z</time>
      </trkpt>
      <trkpt lat="44.32847" lon="2.64804">
        <ele>644.951</ele>
        <time>2013-12-10T13:38:54Z</time>
      </trkpt>
      <trkpt lat="44.32825" lon="2.648">
        <ele>642.23</ele>
        <time>2013-12-10T13:39:01Z</time>
      </trkpt>
      <trkpt lat="44.3281" lon="2.64797">
        <ele>642.47</ele>
        <time>2013-12-10T13:39:07Z</time>
      </trkpt>
      <trkpt lat="44.32795" lon="2.64794">
        <ele>640.97</ele>
        <time>2013-12-10T13:39:13Z</time>
      </trkpt>
      <trkpt lat="44.32777" lon="2.64792">
        <ele>639.12</ele>
        <time>2013-12-10T13:39:19Z</time>
      </trkpt>
      <trkpt lat="44.32766" lon="2.6479">
        <ele>638.5</ele>
        <time>2013-12-10T13:39:23Z</time>
      </trkpt>
      <trkpt lat="44.32744" lon="2.64788">
        <ele>636.61</ele>
        <time>2013-12-10T13:39:30Z</time>
      </trkpt>
      <trkpt lat="44.3273" lon="2.64786">
        <ele>634.78</ele>
        <time>2013-12-10T13:39:35Z</time>
      </trkpt>
      <trkpt lat="44.32717" lon="2.64787">
        <ele>635.671</ele>
        <time>2013-12-10T13:39:40Z</time>
      </trkpt>
      <trkpt lat="44.32706" lon="2.64781">
        <ele>637.151</ele>
        <time>2013-12-10T13:39:45Z</time>
      </trkpt>
      <trkpt lat="44.32699" lon="2.64777">
        <ele>640.562</ele>
        <time>2013-12-10T13:39:51Z</time>
      </trkpt>
      <trkpt lat="44.32688" lon="2.64778">
        <ele>642.002</ele>
        <time>2013-12-10T13:39:56Z</time>
      </trkpt>
      <trkpt lat="44.32674" lon="2.64779">
        <ele>642.851</ele>
        <time>2013-12-10T13:40:01Z</time>
      </trkpt>
      <trkpt lat="44.32656" lon="2.64781">
        <ele>643.751</ele>
        <time>2013-12-10T13:40:07Z</time>
      </trkpt>
      <trkpt lat="44.32643" lon="2.64784">
        <ele>645.482</ele>
        <time>2013-12-10T13:40:13Z</time>
      </trkpt>
      <trkpt lat="44.32632" lon="2.64789">
        <ele>647.432</ele>
        <time>2013-12-10T13:40:18Z</time>
      </trkpt>
      <trkpt lat="44.32617" lon="2.64795">
        <ele>646.961</ele>
        <time>2013-12-10T13:40:23Z</time>
      </trkpt>
      <trkpt lat="44.32602" lon="2.648">
        <ele>647.332</ele>
        <time>2013-12-10T13:40:29Z</time>
      </trkpt>
      <trkpt lat="44.32602" lon="2.64801">
        <ele>648.122</ele>
        <time>2013-12-10T13:40:35Z</time>
      </trkpt>
      <trkpt lat="44.32576" lon="2.64801">
        <ele>649.372</ele>
        <time>2013-12-10T13:40:40Z</time>
      </trkpt>
      <trkpt lat="44.32558" lon="2.64801">
        <ele>650.102</ele>
        <time>2013-12-10T13:40:47Z</time>
      </trkpt>
      <trkpt lat="44.32544" lon="2.64801">
        <ele>651.352</ele>
        <time>2013-12-10T13:40:53Z</time>
      </trkpt>
      <trkpt lat="44.32522" lon="2.648">
        <ele>652.2</ele>
        <time>2013-12-10T13:41:02Z</time>
      </trkpt>
      <trkpt lat="44.32506" lon="2.64798">
        <ele>652.83</ele>
        <time>2013-12-10T13:41:09Z</time>
      </trkpt>
      <trkpt lat="44.32486" lon="2.64793">
        <ele>654.361</ele>
        <time>2013-12-10T13:41:17Z</time>
      </trkpt>
      <trkpt lat="44.32467" lon="2.64784">
        <ele>654.85</ele>
        <time>2013-12-10T13:41:25Z</time>
      </trkpt>
      <trkpt lat="44.32445" lon="2.64774">
        <ele>653.701</ele>
        <time>2013-12-10T13:41:34Z</time>
      </trkpt>
      <trkpt lat="44.32426" lon="2.64765">
        <ele>652.78</ele>
        <time>2013-12-10T13:41:42Z</time>
      </trkpt>
      <trkpt lat="44.32406" lon="2.64754">
        <ele>653.711</ele>
        <time>2013-12-10T13:41:51Z</time>
      </trkpt>
      <trkpt lat="44.32393" lon="2.64748">
        <ele>654.25</ele>
        <time>2013-12-10T13:41:57Z</time>
      </trkpt>
      <trkpt lat="44.32378" lon="2.64745">
        <ele>655.16</ele>
        <time>2013-12-10T13:42:04Z</time>
      </trkpt>
      <trkpt lat="44.3237" lon="2.64743">
        <ele>656.69</ele>
        <time>2013-12-10T13:42:10Z</time>
      </trkpt>
      <trkpt lat="44.32352" lon="2.64746">
        <ele>659.291</ele>
        <time>2013-12-10T13:42:17Z</time>
      </trkpt>
      <trkpt lat="44.32337" lon="2.64757">
        <ele>662.601</ele>
        <time>2013-12-10T13:42:24Z</time>
      </trkpt>
      <trkpt lat="44.32324" lon="2.64777">
        <ele>664.051</ele>
        <time>2013-12-10T13:42:30Z</time>
      </trkpt>
      <trkpt lat="44.32313" lon="2.648">
        <ele>665.311</ele>
        <time>2013-12-10T13:42:37Z</time>
      </trkpt>
      <trkpt lat="44.32308" lon="2.64811">
        <ele>666.391</ele>
        <time>2013-12-10T13:42:41Z</time>
      </trkpt>
      <trkpt lat="44.32293" lon="2.64815">
        <ele>664.721</ele>
        <time>2013-12-10T13:42:46Z</time>
      </trkpt>
      <trkpt lat="44.32282" lon="2.6479">
        <ele>663.109</ele>
        <time>2013-12-10T13:42:54Z</time>
      </trkpt>
      <trkpt lat="44.32271" lon="2.64757">
        <ele>661.929</ele>
        <time>2013-12-10T13:43:03Z</time>
      </trkpt>
      <trkpt lat="44.32268" lon="2.64736">
        <ele>662.479</ele>
        <time>2013-12-10T13:43:09Z</time>
      </trkpt>
      <trkpt lat="44.32262" lon="2.64716">
        <ele>663.049</ele>
        <time>2013-12-10T13:43:15Z</time>
      </trkpt>
      <trkpt lat="44.32257" lon="2.647">
        <ele>663.96</ele>
        <time>2013-12-10T13:43:20Z</time>
      </trkpt>
      <trkpt lat="44.32242" lon="2.64681">
        <ele>664.749</ele>
        <time>2013-12-10T13:43:28Z</time>
      </trkpt>
      <trkpt lat="44.32224" lon="2.6467">
        <ele>666.139</ele>
        <time>2013-12-10T13:43:36Z</time>
      </trkpt>
      <trkpt lat="44.32207" lon="2.64659">
        <ele>668.51</ele>
        <time>2013-12-10T13:43:44Z</time>
      </trkpt>
      <trkpt lat="44.32192" lon="2.64654">
        <ele>670.179</ele>
        <time>2013-12-10T13:43:51Z</time>
      </trkpt>
      <trkpt lat="44.32172" lon="2.64651">
        <ele>671.239</ele>
        <time>2013-12-10T13:44:00Z</time>
      </trkpt>
      <trkpt lat="44.3215" lon="2.64648">
        <ele>672.572</ele>
        <time>2013-12-10T13:44:09Z</time>
      </trkpt>
      <trkpt lat="44.3214" lon="2.64646">
        <ele>672.628</ele>
        <time>2013-12-10T13:44:15Z</time>
      </trkpt>
      <trkpt lat="44.3214" lon="2.64646">
        <ele>672.968</ele>
        <time>2013-12-10T13:44:23Z</time>
      </trkpt>
      <trkpt lat="44.32112" lon="2.64641">
        <ele>671.718</ele>
        <time>2013-12-10T13:44:34Z</time>
      </trkpt>
      <trkpt lat="44.32098" lon="2.64638">
        <ele>669.738</ele>
        <time>2013-12-10T13:44:43Z</time>
      </trkpt>
      <trkpt lat="44.32091" lon="2.64637">
        <ele>668.467</ele>
        <time>2013-12-10T13:44:48Z</time>
      </trkpt>
      <trkpt lat="44.32083" lon="2.64635">
        <ele>667.407</ele>
        <time>2013-12-10T13:44:53Z</time>
      </trkpt>
      <trkpt lat="44.32062" lon="2.64631">
        <ele>665.606</ele>
        <time>2013-12-10T13:45:02Z</time>
      </trkpt>
      <trkpt lat="44.32036" lon="2.64627">
        <ele>663.276</ele>
        <time>2013-12-10T13:45:12Z</time>
      </trkpt>
      <trkpt lat="44.32015" lon="2.64625">
        <ele>662.226</ele>
        <time>2013-12-10T13:45:20Z</time>
      </trkpt>
      <trkpt lat="44.32014" lon="2.64625">
        <ele>659.696</ele>
        <time>2013-12-10T13:45:26Z</time>
      </trkpt>
      <trkpt lat="44.31975" lon="2.64614">
        <ele>657.076</ele>
        <time>2013-12-10T13:45:34Z</time>
      </trkpt>
      <trkpt lat="44.3195" lon="2.64609">
        <ele>655.537</ele>
        <time>2013-12-10T13:45:43Z</time>
      </trkpt>
      <trkpt lat="44.31931" lon="2.64607">
        <ele>654.266</ele>
        <time>2013-12-10T13:45:50Z</time>
      </trkpt>
      <trkpt lat="44.31907" lon="2.64608">
        <ele>652.687</ele>
        <time>2013-12-10T13:45:58Z</time>
      </trkpt>
      <trkpt lat="44.31891" lon="2.64612">
        <ele>652.066</ele>
        <time>2013-12-10T13:46:04Z</time>
      </trkpt>
      <trkpt lat="44.31872" lon="2.64613">
        <ele>650.997</ele>
        <time>2013-12-10T13:46:10Z</time>
      </trkpt>
      <trkpt lat="44.31851" lon="2.64594">
        <ele>650.227</ele>
        <time>2013-12-10T13:46:17Z</time>
      </trkpt>
      <trkpt lat="44.31837" lon="2.64571">
        <ele>650.738</ele>
        <time>2013-12-10T13:46:24Z</time>
      </trkpt>
      <trkpt lat="44.31825" lon="2.64553">
        <ele>651.588</ele>
        <time>2013-12-10T13:46:30Z</time>
      </trkpt>
      <trkpt lat="44.31808" lon="2.64536">
        <ele>652.228</ele>
        <time>2013-12-10T13:46:37Z</time>
      </trkpt>
      <trkpt lat="44.31787" lon="2.64523">
        <ele>650.586</ele>
        <time>2013-12-10T13:46:45Z</time>
      </trkpt>
      <trkpt lat="44.3177" lon="2.64517">
        <ele>649.767</ele>
        <time>2013-12-10T13:46:51Z</time>
      </trkpt>
      <trkpt lat="44.31755" lon="2.64516">
        <ele>650.137</ele>
        <time>2013-12-10T13:46:57Z</time>
      </trkpt>
      <trkpt lat="44.31743" lon="2.64515">
        <ele>651.127</ele>
        <time>2013-12-10T13:47:02Z</time>
      </trkpt>
      <trkpt lat="44.31725" lon="2.64514">
        <ele>649.845</ele>
        <time>2013-12-10T13:47:09Z</time>
      </trkpt>
      <trkpt lat="44.31708" lon="2.64513">
        <ele>648.756</ele>
        <time>2013-12-10T13:47:15Z</time>
      </trkpt>
      <trkpt lat="44.3169" lon="2.64512">
        <ele>645.916</ele>
        <time>2013-12-10T13:47:21Z</time>
      </trkpt>
      <trkpt lat="44.31669" lon="2.64509">
        <ele>641.426</ele>
        <time>2013-12-10T13:47:27Z</time>
      </trkpt>
      <trkpt lat="44.31649" lon="2.6449">
        <ele>638.495</ele>
        <time>2013-12-10T13:47:33Z</time>
      </trkpt>
      <trkpt lat="44.31638" lon="2.64484">
        <ele>637.055</ele>
        <time>2013-12-10T13:47:37Z</time>
      </trkpt>
      <trkpt lat="44.31619" lon="2.64503">
        <ele>635.545</ele>
        <time>2013-12-10T13:47:43Z</time>
      </trkpt>
      <trkpt lat="44.31614" lon="2.64514">
        <ele>634.946</ele>
        <time>2013-12-10T13:47:46Z</time>
      </trkpt>
      <trkpt lat="44.31606" lon="2.64517">
        <ele>631.745</ele>
        <time>2013-12-10T13:47:51Z</time>
      </trkpt>
      <trkpt lat="44.31605" lon="2.64515">
        <ele>631.645</ele>
        <time>2013-12-10T13:47:52Z</time>
      </trkpt>
      <trkpt lat="44.31604" lon="2.6448">
        <ele>628.786</ele>
        <time>2013-12-10T13:48:01Z</time>
      </trkpt>
      <trkpt lat="44.31603" lon="2.64452">
        <ele>629.866</ele>
        <time>2013-12-10T13:48:08Z</time>
      </trkpt>
      <trkpt lat="44.31602" lon="2.64438">
        <ele>629.896</ele>
        <time>2013-12-10T13:48:12Z</time>
      </trkpt>
      <trkpt lat="44.31608" lon="2.64414">
        <ele>628.076</ele>
        <time>2013-12-10T13:48:21Z</time>
      </trkpt>
      <trkpt lat="44.31615" lon="2.644">
        <ele>626.745</ele>
        <time>2013-12-10T13:48:26Z</time>
      </trkpt>
      <trkpt lat="44.3162" lon="2.64391">
        <ele>625.355</ele>
        <time>2013-12-10T13:48:31Z</time>
      </trkpt>
      <trkpt lat="44.31623" lon="2.64357">
        <ele>623.635</ele>
        <time>2013-12-10T13:48:37Z</time>
      </trkpt>
      <trkpt lat="44.31627" lon="2.64342">
        <ele>623.695</ele>
        <time>2013-12-10T13:48:41Z</time>
      </trkpt>
      <trkpt lat="44.31618" lon="2.64323">
        <ele>625.607</ele>
        <time>2013-12-10T13:48:48Z</time>
      </trkpt>
      <trkpt lat="44.31614" lon="2.64308">
        <ele>626.977</ele>
        <time>2013-12-10T13:48:53Z</time>
      </trkpt>
      <trkpt lat="44.31607" lon="2.64288">
        <ele>628.237</ele>
        <time>2013-12-10T13:48:59Z</time>
      </trkpt>
      <trkpt lat="44.31601" lon="2.64274">
        <ele>628.446</ele>
        <time>2013-12-10T13:49:04Z</time>
      </trkpt>
      <trkpt lat="44.31598" lon="2.64261">
        <ele>628.376</ele>
        <time>2013-12-10T13:49:08Z</time>
      </trkpt>
      <trkpt lat="44.31592" lon="2.64237">
        <ele>627.005</ele>
        <time>2013-12-10T13:49:14Z</time>
      </trkpt>
      <trkpt lat="44.31586" lon="2.6422">
        <ele>625.705</ele>
        <time>2013-12-10T13:49:19Z</time>
      </trkpt>
      <trkpt lat="44.31569" lon="2.64195">
        <ele>623.365</ele>
        <time>2013-12-10T13:49:27Z</time>
      </trkpt>
      <trkpt lat="44.31564" lon="2.64187">
        <ele>623.676</ele>
        <time>2013-12-10T13:49:30Z</time>
      </trkpt>
      <trkpt lat="44.31551" lon="2.64169">
        <ele>622.995</ele>
        <time>2013-12-10T13:49:37Z</time>
      </trkpt>
      <trkpt lat="44.31539" lon="2.6415">
        <ele>621.685</ele>
        <time>2013-12-10T13:49:44Z</time>
      </trkpt>
      <trkpt lat="44.31531" lon="2.64131">
        <ele>620.505</ele>
        <time>2013-12-10T13:49:50Z</time>
      </trkpt>
      <trkpt lat="44.31527" lon="2.64109">
        <ele>620.445</ele>
        <time>2013-12-10T13:49:56Z</time>
      </trkpt>
      <trkpt lat="44.31527" lon="2.64095">
        <ele>617.104</ele>
        <time>2013-12-10T13:50:01Z</time>
      </trkpt>
      <trkpt lat="44.31527" lon="2.64086">
        <ele>617.275</ele>
        <time>2013-12-10T13:50:06Z</time>
      </trkpt>
      <trkpt lat="44.31524" lon="2.64069">
        <ele>619.216</ele>
        <time>2013-12-10T13:50:12Z</time>
      </trkpt>
      <trkpt lat="44.31522" lon="2.64055">
        <ele>620.245</ele>
        <time>2013-12-10T13:50:17Z</time>
      </trkpt>
      <trkpt lat="44.31517" lon="2.64039">
        <ele>623.266</ele>
        <time>2013-12-10T13:50:23Z</time>
      </trkpt>
      <trkpt lat="44.31511" lon="2.64028">
        <ele>625.447</ele>
        <time>2013-12-10T13:50:27Z</time>
      </trkpt>
      <trkpt lat="44.31499" lon="2.64014">
        <ele>621.796</ele>
        <time>2013-12-10T13:50:32Z</time>
      </trkpt>
      <trkpt lat="44.31482" lon="2.63997">
        <ele>621.096</ele>
        <time>2013-12-10T13:50:39Z</time>
      </trkpt>
      <trkpt lat="44.31467" lon="2.63983">
        <ele>619.745</ele>
        <time>2013-12-10T13:50:45Z</time>
      </trkpt>
      <trkpt lat="44.31458" lon="2.63972">
        <ele>621.125</ele>
        <time>2013-12-10T13:50:50Z</time>
      </trkpt>
      <trkpt lat="44.31452" lon="2.63965">
        <ele>623.317</ele>
        <time>2013-12-10T13:50:53Z</time>
      </trkpt>
      <trkpt lat="44.31443" lon="2.63946">
        <ele>622.485</ele>
        <time>2013-12-10T13:50:59Z</time>
      </trkpt>
      <trkpt lat="44.31436" lon="2.63933">
        <ele>626.045</ele>
        <time>2013-12-10T13:51:04Z</time>
      </trkpt>
      <trkpt lat="44.31427" lon="2.63916">
        <ele>630.715</ele>
        <time>2013-12-10T13:51:11Z</time>
      </trkpt>
      <trkpt lat="44.3142" lon="2.63902">
        <ele>633.855</ele>
        <time>2013-12-10T13:51:16Z</time>
      </trkpt>
      <trkpt lat="44.31419" lon="2.63899">
        <ele>634.366</ele>
        <time>2013-12-10T13:51:17Z</time>
      </trkpt>
      <trkpt lat="44.31417" lon="2.63895">
        <ele>634.908</ele>
        <time>2013-12-10T13:51:20Z</time>
      </trkpt>
      <trkpt lat="44.31406" lon="2.63867">
        <ele>630.785</ele>
        <time>2013-12-10T13:51:38Z</time>
      </trkpt>
      <trkpt lat="44.31402" lon="2.63857">
        <ele>631.826</ele>
        <time>2013-12-10T13:51:42Z</time>
      </trkpt>
      <trkpt lat="44.31395" lon="2.63835">
        <ele>630.685</ele>
        <time>2013-12-10T13:51:49Z</time>
      </trkpt>
      <trkpt lat="44.3139" lon="2.63817">
        <ele>626.995</ele>
        <time>2013-12-10T13:51:54Z</time>
      </trkpt>
      <trkpt lat="44.31389" lon="2.6379">
        <ele>624.705</ele>
        <time>2013-12-10T13:52:01Z</time>
      </trkpt>
      <trkpt lat="44.31391" lon="2.63769">
        <ele>624.805</ele>
        <time>2013-12-10T13:52:07Z</time>
      </trkpt>
      <trkpt lat="44.31396" lon="2.63748">
        <ele>626.395</ele>
        <time>2013-12-10T13:52:14Z</time>
      </trkpt>
      <trkpt lat="44.31402" lon="2.63732">
        <ele>627.895</ele>
        <time>2013-12-10T13:52:20Z</time>
      </trkpt>
      <trkpt lat="44.3141" lon="2.63715">
        <ele>628.144</ele>
        <time>2013-12-10T13:52:27Z</time>
      </trkpt>
      <trkpt lat="44.31416" lon="2.63698">
        <ele>630.185</ele>
        <time>2013-12-10T13:52:33Z</time>
      </trkpt>
      <trkpt lat="44.31419" lon="2.63683">
        <ele>631.665</ele>
        <time>2013-12-10T13:52:38Z</time>
      </trkpt>
      <trkpt lat="44.31417" lon="2.63672">
        <ele>633.826</ele>
        <time>2013-12-10T13:52:44Z</time>
      </trkpt>
      <trkpt lat="44.31414" lon="2.63662">
        <ele>637.337</ele>
        <time>2013-12-10T13:52:49Z</time>
      </trkpt>
      <trkpt lat="44.31408" lon="2.63652">
        <ele>639.756</ele>
        <time>2013-12-10T13:52:54Z</time>
      </trkpt>
      <trkpt lat="44.314" lon="2.63638">
        <ele>640.885</ele>
        <time>2013-12-10T13:53:02Z</time>
      </trkpt>
      <trkpt lat="44.314" lon="2.63623">
        <ele>640.345</ele>
        <time>2013-12-10T13:53:08Z</time>
      </trkpt>
      <trkpt lat="44.31404" lon="2.63608">
        <ele>641.745</ele>
        <time>2013-12-10T13:53:14Z</time>
      </trkpt>
      <trkpt lat="44.31403" lon="2.63592">
        <ele>641.664</ele>
        <time>2013-12-10T13:53:20Z</time>
      </trkpt>
      <trkpt lat="44.31402" lon="2.63573">
        <ele>642.474</ele>
        <time>2013-12-10T13:53:27Z</time>
      </trkpt>
      <trkpt lat="44.31401" lon="2.63556">
        <ele>642.314</ele>
        <time>2013-12-10T13:53:33Z</time>
      </trkpt>
      <trkpt lat="44.314" lon="2.63534">
        <ele>642.274</ele>
        <time>2013-12-10T13:53:40Z</time>
      </trkpt>
      <trkpt lat="44.314" lon="2.63517">
        <ele>643.084</ele>
        <time>2013-12-10T13:53:47Z</time>
      </trkpt>
      <trkpt lat="44.31403" lon="2.63512">
        <ele>642.513</ele>
        <time>2013-12-10T13:53:51Z</time>
      </trkpt>
      <trkpt lat="44.31399" lon="2.63498">
        <ele>641.963</ele>
        <time>2013-12-10T13:53:55Z</time>
      </trkpt>
      <trkpt lat="44.31396" lon="2.63484">
        <ele>641.923</ele>
        <time>2013-12-10T13:54:03Z</time>
      </trkpt>
      <trkpt lat="44.31395" lon="2.63478">
        <ele>642.094</ele>
        <time>2013-12-10T13:54:06Z</time>
      </trkpt>
      <trkpt lat="44.31395" lon="2.63478">
        <ele>642.483</ele>
        <time>2013-12-10T13:54:08Z</time>
      </trkpt>
      <trkpt lat="44.31393" lon="2.63474">
        <ele>642.233</ele>
        <time>2013-12-10T13:54:13Z</time>
      </trkpt>
      <trkpt lat="44.31391" lon="2.63466">
        <ele>642.533</ele>
        <time>2013-12-10T13:54:18Z</time>
      </trkpt>
      <trkpt lat="44.31389" lon="2.63462">
        <ele>643.453</ele>
        <time>2013-12-10T13:54:21Z</time>
      </trkpt>
      <trkpt lat="44.31387" lon="2.63459">
        <ele>643.523</ele>
        <time>2013-12-10T13:54:25Z</time>
      </trkpt>
      <trkpt lat="44.31388" lon="2.63461">
        <ele>643.943</ele>
        <time>2013-12-10T13:54:30Z</time>
      </trkpt>
      <trkpt lat="44.31388" lon="2.63461">
        <ele>644.003</ele>
        <time>2013-12-10T13:54:31Z</time>
      </trkpt>
      <trkpt lat="44.31381" lon="2.63453">
        <ele>643.973</ele>
        <time>2013-12-10T13:54:37Z</time>
      </trkpt>
      <trkpt lat="44.31371" lon="2.63437">
        <ele>643.474</ele>
        <time>2013-12-10T13:54:44Z</time>
      </trkpt>
      <trkpt lat="44.31363" lon="2.63425">
        <ele>642.612</ele>
        <time>2013-12-10T13:54:49Z</time>
      </trkpt>
      <trkpt lat="44.31357" lon="2.63416">
        <ele>642.543</ele>
        <time>2013-12-10T13:54:54Z</time>
      </trkpt>
      <trkpt lat="44.31347" lon="2.63401">
        <ele>641.793</ele>
        <time>2013-12-10T13:55:00Z</time>
      </trkpt>
      <trkpt lat="44.31344" lon="2.6338">
        <ele>641.663</ele>
        <time>2013-12-10T13:55:06Z</time>
      </trkpt>
      <trkpt lat="44.31342" lon="2.63361">
        <ele>640.292</ele>
        <time>2013-12-10T13:55:11Z</time>
      </trkpt>
      <trkpt lat="44.31342" lon="2.63341">
        <ele>639.602</ele>
        <time>2013-12-10T13:55:17Z</time>
      </trkpt>
      <trkpt lat="44.31342" lon="2.6332">
        <ele>639.042</ele>
        <time>2013-12-10T13:55:23Z</time>
      </trkpt>
      <trkpt lat="44.31344" lon="2.63296">
        <ele>637.912</ele>
        <time>2013-12-10T13:55:29Z</time>
      </trkpt>
      <trkpt lat="44.31357" lon="2.6327">
        <ele>637.522</ele>
        <time>2013-12-10T13:55:37Z</time>
      </trkpt>
      <trkpt lat="44.31369" lon="2.63241">
        <ele>636.912</ele>
        <time>2013-12-10T13:55:46Z</time>
      </trkpt>
      <trkpt lat="44.3137" lon="2.63238">
        <ele>634.181</ele>
        <time>2013-12-10T13:55:52Z</time>
      </trkpt>
      <trkpt lat="44.31374" lon="2.63213">
        <ele>634.232</ele>
        <time>2013-12-10T13:55:54Z</time>
      </trkpt>
      <trkpt lat="44.31385" lon="2.63206">
        <ele>634.803</ele>
        <time>2013-12-10T13:56:00Z</time>
      </trkpt>
      <trkpt lat="44.31399" lon="2.63206">
        <ele>636.884</ele>
        <time>2013-12-10T13:56:07Z</time>
      </trkpt>
      <trkpt lat="44.31413" lon="2.63217">
        <ele>639.655</ele>
        <time>2013-12-10T13:56:14Z</time>
      </trkpt>
      <trkpt lat="44.31426" lon="2.63227">
        <ele>638.814</ele>
        <time>2013-12-10T13:56:20Z</time>
      </trkpt>
      <trkpt lat="44.31426" lon="2.63227">
        <ele>637.652</ele>
        <time>2013-12-10T13:56:23Z</time>
      </trkpt>
      <trkpt lat="44.31435" lon="2.63235">
        <ele>635.403</ele>
        <time>2013-12-10T13:56:56Z</time>
      </trkpt>
      <trkpt lat="44.31442" lon="2.6324">
        <ele>634.823</ele>
        <time>2013-12-10T13:57:02Z</time>
      </trkpt>
      <trkpt lat="44.31446" lon="2.63242">
        <ele>634.602</ele>
        <time>2013-12-10T13:57:05Z</time>
      </trkpt>
      <trkpt lat="44.31456" lon="2.63243">
        <ele>634.703</ele>
        <time>2013-12-10T13:57:11Z</time>
      </trkpt>
      <trkpt lat="44.31469" lon="2.63234">
        <ele>634.734</ele>
        <time>2013-12-10T13:57:16Z</time>
      </trkpt>
      <trkpt lat="44.31477" lon="2.63218">
        <ele>636.485</ele>
        <time>2013-12-10T13:57:22Z</time>
      </trkpt>
      <trkpt lat="44.31481" lon="2.63198">
        <ele>637.345</ele>
        <time>2013-12-10T13:57:28Z</time>
      </trkpt>
      <trkpt lat="44.31491" lon="2.63187">
        <ele>636.324</ele>
        <time>2013-12-10T13:57:34Z</time>
      </trkpt>
      <trkpt lat="44.315" lon="2.63193">
        <ele>637.205</ele>
        <time>2013-12-10T13:57:40Z</time>
      </trkpt>
      <trkpt lat="44.31512" lon="2.63198">
        <ele>637.284</ele>
        <time>2013-12-10T13:57:47Z</time>
      </trkpt>
      <trkpt lat="44.31525" lon="2.63204">
        <ele>639.405</ele>
        <time>2013-12-10T13:57:54Z</time>
      </trkpt>
      <trkpt lat="44.31538" lon="2.63211">
        <ele>642.225</ele>
        <time>2013-12-10T13:58:02Z</time>
      </trkpt>
      <trkpt lat="44.31551" lon="2.63218">
        <ele>643.254</ele>
        <time>2013-12-10T13:58:09Z</time>
      </trkpt>
      <trkpt lat="44.31568" lon="2.63227">
        <ele>643.574</ele>
        <time>2013-12-10T13:58:17Z</time>
      </trkpt>
      <trkpt lat="44.31584" lon="2.63234">
        <ele>644.974</ele>
        <time>2013-12-10T13:58:25Z</time>
      </trkpt>
      <trkpt lat="44.31597" lon="2.63241">
        <ele>646.865</ele>
        <time>2013-12-10T13:58:32Z</time>
      </trkpt>
      <trkpt lat="44.31608" lon="2.63247">
        <ele>649.575</ele>
        <time>2013-12-10T13:58:39Z</time>
      </trkpt>
      <trkpt lat="44.31621" lon="2.63254">
        <ele>652.886</ele>
        <time>2013-12-10T13:58:47Z</time>
      </trkpt>
      <trkpt lat="44.3163" lon="2.63259">
        <ele>654.105</ele>
        <time>2013-12-10T13:58:53Z</time>
      </trkpt>
      <trkpt lat="44.3164" lon="2.63265">
        <ele>655.505</ele>
        <time>2013-12-10T13:58:59Z</time>
      </trkpt>
      <trkpt lat="44.31654" lon="2.63268">
        <ele>657.685</ele>
        <time>2013-12-10T13:59:07Z</time>
      </trkpt>
      <trkpt lat="44.31665" lon="2.63269">
        <ele>658.765</ele>
        <time>2013-12-10T13:59:13Z</time>
      </trkpt>
      <trkpt lat="44.31681" lon="2.63271">
        <ele>661.215</ele>
        <time>2013-12-10T13:59:22Z</time>
      </trkpt>
      <trkpt lat="44.31695" lon="2.63273">
        <ele>665.656</ele>
        <time>2013-12-10T13:59:30Z</time>
      </trkpt>
      <trkpt lat="44.31707" lon="2.63272">
        <ele>669.105</ele>
        <time>2013-12-10T13:59:37Z</time>
      </trkpt>
      <trkpt lat="44.31722" lon="2.63271">
        <ele>670.785</ele>
        <time>2013-12-10T13:59:45Z</time>
      </trkpt>
      <trkpt lat="44.31735" lon="2.63271">
        <ele>669.774</ele>
        <time>2013-12-10T13:59:52Z</time>
      </trkpt>
      <trkpt lat="44.31748" lon="2.63275">
        <ele>669.815</ele>
        <time>2013-12-10T13:59:59Z</time>
      </trkpt>
      <trkpt lat="44.31758" lon="2.63278">
        <ele>671.415</ele>
        <time>2013-12-10T14:00:05Z</time>
      </trkpt>
      <trkpt lat="44.31767" lon="2.6328">
        <ele>670.715</ele>
        <time>2013-12-10T14:00:10Z</time>
      </trkpt>
      <trkpt lat="44.31778" lon="2.63283">
        <ele>671.085</ele>
        <time>2013-12-10T14:00:16Z</time>
      </trkpt>
      <trkpt lat="44.31791" lon="2.63286">
        <ele>673.637</ele>
        <time>2013-12-10T14:00:23Z</time>
      </trkpt>
      <trkpt lat="44.31802" lon="2.63287">
        <ele>676.496</ele>
        <time>2013-12-10T14:00:30Z</time>
      </trkpt>
      <trkpt lat="44.31817" lon="2.63282">
        <ele>678.637</ele>
        <time>2013-12-10T14:00:38Z</time>
      </trkpt>
      <trkpt lat="44.31834" lon="2.6327">
        <ele>675.035</ele>
        <time>2013-12-10T14:00:46Z</time>
      </trkpt>
      <trkpt lat="44.31843" lon="2.63258">
        <ele>673.045</ele>
        <time>2013-12-10T14:00:51Z</time>
      </trkpt>
      <trkpt lat="44.31854" lon="2.63243">
        <ele>671.436</ele>
        <time>2013-12-10T14:00:57Z</time>
      </trkpt>
      <trkpt lat="44.31869" lon="2.63213">
        <ele>672.915</ele>
        <time>2013-12-10T14:01:07Z</time>
      </trkpt>
      <trkpt lat="44.31881" lon="2.63193">
        <ele>672.415</ele>
        <time>2013-12-10T14:01:14Z</time>
      </trkpt>
      <trkpt lat="44.31896" lon="2.63168">
        <ele>673.005</ele>
        <time>2013-12-10T14:01:22Z</time>
      </trkpt>
      <trkpt lat="44.31908" lon="2.63151">
        <ele>674.097</ele>
        <time>2013-12-10T14:01:28Z</time>
      </trkpt>
      <trkpt lat="44.31919" lon="2.63134">
        <ele>675.365</ele>
        <time>2013-12-10T14:01:34Z</time>
      </trkpt>
      <trkpt lat="44.31933" lon="2.63115">
        <ele>676.245</ele>
        <time>2013-12-10T14:01:41Z</time>
      </trkpt>
      <trkpt lat="44.31946" lon="2.631">
        <ele>675.654</ele>
        <time>2013-12-10T14:01:47Z</time>
      </trkpt>
      <trkpt lat="44.31959" lon="2.63085">
        <ele>676.075</ele>
        <time>2013-12-10T14:01:53Z</time>
      </trkpt>
      <trkpt lat="44.31973" lon="2.6307">
        <ele>675.805</ele>
        <time>2013-12-10T14:01:59Z</time>
      </trkpt>
      <trkpt lat="44.31983" lon="2.63057">
        <ele>674.816</ele>
        <time>2013-12-10T14:02:04Z</time>
      </trkpt>
      <trkpt lat="44.31994" lon="2.63045">
        <ele>673.495</ele>
        <time>2013-12-10T14:02:09Z</time>
      </trkpt>
      <trkpt lat="44.32002" lon="2.63035">
        <ele>672.535</ele>
        <time>2013-12-10T14:02:13Z</time>
      </trkpt>
      <trkpt lat="44.32006" lon="2.63031">
        <ele>672.856</ele>
        <time>2013-12-10T14:02:15Z</time>
      </trkpt>
      <trkpt lat="44.3202" lon="2.63013">
        <ele>672.475</ele>
        <time>2013-12-10T14:02:22Z</time>
      </trkpt>
      <trkpt lat="44.32023" lon="2.6301">
        <ele>672.295</ele>
        <time>2013-12-10T14:02:23Z</time>
      </trkpt>
      <trkpt lat="44.32036" lon="2.62995">
        <ele>672.606</ele>
        <time>2013-12-10T14:02:29Z</time>
      </trkpt>
      <trkpt lat="44.3205" lon="2.62979">
        <ele>672.806</ele>
        <time>2013-12-10T14:02:35Z</time>
      </trkpt>
      <trkpt lat="44.32064" lon="2.62964">
        <ele>668.965</ele>
        <time>2013-12-10T14:02:40Z</time>
      </trkpt>
      <trkpt lat="44.3207" lon="2.62958">
        <ele>668.435</ele>
        <time>2013-12-10T14:02:42Z</time>
      </trkpt>
      <trkpt lat="44.32085" lon="2.62942">
        <ele>667.006</ele>
        <time>2013-12-10T14:02:48Z</time>
      </trkpt>
      <trkpt lat="44.32097" lon="2.62931">
        <ele>666.546</ele>
        <time>2013-12-10T14:02:53Z</time>
      </trkpt>
      <trkpt lat="44.32112" lon="2.62917">
        <ele>666.516</ele>
        <time>2013-12-10T14:02:59Z</time>
      </trkpt>
      <trkpt lat="44.32126" lon="2.62904">
        <ele>664.986</ele>
        <time>2013-12-10T14:03:04Z</time>
      </trkpt>
      <trkpt lat="44.32141" lon="2.62889">
        <ele>660.464</ele>
        <time>2013-12-10T14:03:09Z</time>
      </trkpt>
      <trkpt lat="44.32152" lon="2.62871">
        <ele>656.724</ele>
        <time>2013-12-10T14:03:14Z</time>
      </trkpt>
      <trkpt lat="44.3216" lon="2.62852">
        <ele>655.054</ele>
        <time>2013-12-10T14:03:19Z</time>
      </trkpt>
      <trkpt lat="44.32169" lon="2.6282">
        <ele>649.552</ele>
        <time>2013-12-10T14:03:26Z</time>
      </trkpt>
      <trkpt lat="44.32175" lon="2.62785">
        <ele>642.802</ele>
        <time>2013-12-10T14:03:33Z</time>
      </trkpt>
      <trkpt lat="44.32176" lon="2.62763">
        <ele>639.002</ele>
        <time>2013-12-10T14:03:38Z</time>
      </trkpt>
      <trkpt lat="44.32177" lon="2.62741">
        <ele>635.892</ele>
        <time>2013-12-10T14:03:44Z</time>
      </trkpt>
      <trkpt lat="44.32182" lon="2.62718">
        <ele>634.254</ele>
        <time>2013-12-10T14:03:50Z</time>
      </trkpt>
      <trkpt lat="44.32183" lon="2.62715">
        <ele>633.975</ele>
        <time>2013-12-10T14:03:56Z</time>
      </trkpt>
      <trkpt lat="44.32183" lon="2.62715">
        <ele>635.387</ele>
        <time>2013-12-10T14:04:01Z</time>
      </trkpt>
      <trkpt lat="44.32205" lon="2.62691">
        <ele>638.028</ele>
        <time>2013-12-10T14:04:04Z</time>
      </trkpt>
      <trkpt lat="44.32206" lon="2.62668">
        <ele>640.548</ele>
        <time>2013-12-10T14:04:09Z</time>
      </trkpt>
      <trkpt lat="44.32203" lon="2.62661">
        <ele>641.147</ele>
        <time>2013-12-10T14:04:12Z</time>
      </trkpt>
      <trkpt lat="44.32201" lon="2.62647">
        <ele>641.346</ele>
        <time>2013-12-10T14:04:18Z</time>
      </trkpt>
      <trkpt lat="44.32202" lon="2.62621">
        <ele>641.476</ele>
        <time>2013-12-10T14:04:26Z</time>
      </trkpt>
      <trkpt lat="44.32224" lon="2.62593">
        <ele>638.505</ele>
        <time>2013-12-10T14:04:33Z</time>
      </trkpt>
      <trkpt lat="44.32239" lon="2.62591">
        <ele>636.645</ele>
        <time>2013-12-10T14:04:39Z</time>
      </trkpt>
      <trkpt lat="44.32252" lon="2.62601">
        <ele>637.656</ele>
        <time>2013-12-10T14:04:45Z</time>
      </trkpt>
      <trkpt lat="44.32267" lon="2.62614">
        <ele>641.637</ele>
        <time>2013-12-10T14:04:53Z</time>
      </trkpt>
      <trkpt lat="44.32277" lon="2.62624">
        <ele>645.788</ele>
        <time>2013-12-10T14:04:59Z</time>
      </trkpt>
      <trkpt lat="44.32286" lon="2.62633">
        <ele>649.508</ele>
        <time>2013-12-10T14:05:05Z</time>
      </trkpt>
      <trkpt lat="44.32295" lon="2.62647">
        <ele>653.347</ele>
        <time>2013-12-10T14:05:12Z</time>
      </trkpt>
      <trkpt lat="44.32303" lon="2.62658">
        <ele>655.867</ele>
        <time>2013-12-10T14:05:19Z</time>
      </trkpt>
      <trkpt lat="44.32303" lon="2.62668">
        <ele>659.738</ele>
        <time>2013-12-10T14:05:26Z</time>
      </trkpt>
      <trkpt lat="44.32303" lon="2.62668">
        <ele>661.589</ele>
        <time>2013-12-10T14:05:29Z</time>
      </trkpt>
      <trkpt lat="44.32313" lon="2.627">
        <ele>658.556</ele>
        <time>2013-12-10T14:05:33Z</time>
      </trkpt>
      <trkpt lat="44.3232" lon="2.62688">
        <ele>652.065</ele>
        <time>2013-12-10T14:05:44Z</time>
      </trkpt>
      <trkpt lat="44.32327" lon="2.62673">
        <ele>651.685</ele>
        <time>2013-12-10T14:05:54Z</time>
      </trkpt>
      <trkpt lat="44.32333" lon="2.62656">
        <ele>651.705</ele>
        <time>2013-12-10T14:06:04Z</time>
      </trkpt>
      <trkpt lat="44.32338" lon="2.62642">
        <ele>651.985</ele>
        <time>2013-12-10T14:06:12Z</time>
      </trkpt>
      <trkpt lat="44.32345" lon="2.62627">
        <ele>651.925</ele>
        <time>2013-12-10T14:06:20Z</time>
      </trkpt>
      <trkpt lat="44.32349" lon="2.62619">
        <ele>650.925</ele>
        <time>2013-12-10T14:06:26Z</time>
      </trkpt>
      <trkpt lat="44.32357" lon="2.62603">
        <ele>649.625</ele>
        <time>2013-12-10T14:06:33Z</time>
      </trkpt>
      <trkpt lat="44.32363" lon="2.6259">
        <ele>649.666</ele>
        <time>2013-12-10T14:06:38Z</time>
      </trkpt>
      <trkpt lat="44.32369" lon="2.62577">
        <ele>651.626</ele>
        <time>2013-12-10T14:06:43Z</time>
      </trkpt>
      <trkpt lat="44.32374" lon="2.62557">
        <ele>651.026</ele>
        <time>2013-12-10T14:06:49Z</time>
      </trkpt>
      <trkpt lat="44.32381" lon="2.6254">
        <ele>650.025</ele>
        <time>2013-12-10T14:06:54Z</time>
      </trkpt>
      <trkpt lat="44.32389" lon="2.62523">
        <ele>648.404</ele>
        <time>2013-12-10T14:06:59Z</time>
      </trkpt>
      <trkpt lat="44.32401" lon="2.62499">
        <ele>647.045</ele>
        <time>2013-12-10T14:07:07Z</time>
      </trkpt>
      <trkpt lat="44.32407" lon="2.62487">
        <ele>647.755</ele>
        <time>2013-12-10T14:07:11Z</time>
      </trkpt>
      <trkpt lat="44.32414" lon="2.6247">
        <ele>649.335</ele>
        <time>2013-12-10T14:07:17Z</time>
      </trkpt>
      <trkpt lat="44.32424" lon="2.62446">
        <ele>650.635</ele>
        <time>2013-12-10T14:07:24Z</time>
      </trkpt>
      <trkpt lat="44.32434" lon="2.62423">
        <ele>651.606</ele>
        <time>2013-12-10T14:07:31Z</time>
      </trkpt>
      <trkpt lat="44.32441" lon="2.62406">
        <ele>651.505</ele>
        <time>2013-12-10T14:07:36Z</time>
      </trkpt>
      <trkpt lat="44.32449" lon="2.62384">
        <ele>650.315</ele>
        <time>2013-12-10T14:07:42Z</time>
      </trkpt>
      <trkpt lat="44.32456" lon="2.62367">
        <ele>650.585</ele>
        <time>2013-12-10T14:07:47Z</time>
      </trkpt>
      <trkpt lat="44.32463" lon="2.62347">
        <ele>650.996</ele>
        <time>2013-12-10T14:07:53Z</time>
      </trkpt>
      <trkpt lat="44.32472" lon="2.62323">
        <ele>650.856</ele>
        <time>2013-12-10T14:08:00Z</time>
      </trkpt>
      <trkpt lat="44.32481" lon="2.62301">
        <ele>651.746</ele>
        <time>2013-12-10T14:08:07Z</time>
      </trkpt>
      <trkpt lat="44.32487" lon="2.62286">
        <ele>652.957</ele>
        <time>2013-12-10T14:08:12Z</time>
      </trkpt>
      <trkpt lat="44.32492" lon="2.62271">
        <ele>654.076</ele>
        <time>2013-12-10T14:08:17Z</time>
      </trkpt>
      <trkpt lat="44.32502" lon="2.62244">
        <ele>653.785</ele>
        <time>2013-12-10T14:08:25Z</time>
      </trkpt>
      <trkpt lat="44.32512" lon="2.6222">
        <ele>653.115</ele>
        <time>2013-12-10T14:08:32Z</time>
      </trkpt>
      <trkpt lat="44.32517" lon="2.62206">
        <ele>652.614</ele>
        <time>2013-12-10T14:08:36Z</time>
      </trkpt>
      <trkpt lat="44.32524" lon="2.62187">
        <ele>654.016</ele>
        <time>2013-12-10T14:08:42Z</time>
      </trkpt>
      <trkpt lat="44.32534" lon="2.62163">
        <ele>653.985</ele>
        <time>2013-12-10T14:08:49Z</time>
      </trkpt>
      <trkpt lat="44.32542" lon="2.62142">
        <ele>654.266</ele>
        <time>2013-12-10T14:08:55Z</time>
      </trkpt>
      <trkpt lat="44.32552" lon="2.62119">
        <ele>653.896</ele>
        <time>2013-12-10T14:09:02Z</time>
      </trkpt>
      <trkpt lat="44.32568" lon="2.62097">
        <ele>653.285</ele>
        <time>2013-12-10T14:09:10Z</time>
      </trkpt>
      <trkpt lat="44.32578" lon="2.62083">
        <ele>652.644</ele>
        <time>2013-12-10T14:09:15Z</time>
      </trkpt>
      <trkpt lat="44.3259" lon="2.62066">
        <ele>652.905</ele>
        <time>2013-12-10T14:09:21Z</time>
      </trkpt>
      <trkpt lat="44.32599" lon="2.62048">
        <ele>653.755</ele>
        <time>2013-12-10T14:09:27Z</time>
      </trkpt>
      <trkpt lat="44.32606" lon="2.62029">
        <ele>655.405</ele>
        <time>2013-12-10T14:09:33Z</time>
      </trkpt>
      <trkpt lat="44.32616" lon="2.61999">
        <ele>654.135</ele>
        <time>2013-12-10T14:09:41Z</time>
      </trkpt>
      <trkpt lat="44.32622" lon="2.61983">
        <ele>654.325</ele>
        <time>2013-12-10T14:09:46Z</time>
      </trkpt>
      <trkpt lat="44.32622" lon="2.61983">
        <ele>654.326</ele>
        <time>2013-12-10T14:09:47Z</time>
      </trkpt>
      <trkpt lat="44.32627" lon="2.61971">
        <ele>652.395</ele>
        <time>2013-12-10T14:10:00Z</time>
      </trkpt>
      <trkpt lat="44.32634" lon="2.61952">
        <ele>651.965</ele>
        <time>2013-12-10T14:10:06Z</time>
      </trkpt>
      <trkpt lat="44.32641" lon="2.61926">
        <ele>651.205</ele>
        <time>2013-12-10T14:10:13Z</time>
      </trkpt>
      <trkpt lat="44.32645" lon="2.61909">
        <ele>651.165</ele>
        <time>2013-12-10T14:10:18Z</time>
      </trkpt>
      <trkpt lat="44.32652" lon="2.61881">
        <ele>652.065</ele>
        <time>2013-12-10T14:10:25Z</time>
      </trkpt>
      <trkpt lat="44.32657" lon="2.6185">
        <ele>651.924</ele>
        <time>2013-12-10T14:10:33Z</time>
      </trkpt>
      <trkpt lat="44.32662" lon="2.61832">
        <ele>651.205</ele>
        <time>2013-12-10T14:10:38Z</time>
      </trkpt>
      <trkpt lat="44.32668" lon="2.61795">
        <ele>650.195</ele>
        <time>2013-12-10T14:10:47Z</time>
      </trkpt>
      <trkpt lat="44.32671" lon="2.6177">
        <ele>650.825</ele>
        <time>2013-12-10T14:10:54Z</time>
      </trkpt>
      <trkpt lat="44.32676" lon="2.6174">
        <ele>650.065</ele>
        <time>2013-12-10T14:11:02Z</time>
      </trkpt>
      <trkpt lat="44.32683" lon="2.61706">
        <ele>649.524</ele>
        <time>2013-12-10T14:11:11Z</time>
      </trkpt>
      <trkpt lat="44.32691" lon="2.61675">
        <ele>649.365</ele>
        <time>2013-12-10T14:11:19Z</time>
      </trkpt>
      <trkpt lat="44.327" lon="2.61646">
        <ele>649.494</ele>
        <time>2013-12-10T14:11:27Z</time>
      </trkpt>
      <trkpt lat="44.32704" lon="2.6162">
        <ele>651.076</ele>
        <time>2013-12-10T14:11:34Z</time>
      </trkpt>
      <trkpt lat="44.32707" lon="2.61597">
        <ele>653.095</ele>
        <time>2013-12-10T14:11:41Z</time>
      </trkpt>
      <trkpt lat="44.32709" lon="2.61586">
        <ele>652.795</ele>
        <time>2013-12-10T14:11:48Z</time>
      </trkpt>
      <trkpt lat="44.32712" lon="2.61566">
        <ele>652.735</ele>
        <time>2013-12-10T14:11:58Z</time>
      </trkpt>
      <trkpt lat="44.32717" lon="2.61551">
        <ele>652.874</ele>
        <time>2013-12-10T14:12:06Z</time>
      </trkpt>
      <trkpt lat="44.3272" lon="2.61536">
        <ele>652.824</ele>
        <time>2013-12-10T14:12:14Z</time>
      </trkpt>
      <trkpt lat="44.32724" lon="2.61514">
        <ele>652.244</ele>
        <time>2013-12-10T14:12:25Z</time>
      </trkpt>
      <trkpt lat="44.32728" lon="2.61492">
        <ele>652.634</ele>
        <time>2013-12-10T14:12:33Z</time>
      </trkpt>
      <trkpt lat="44.32735" lon="2.61467">
        <ele>653.075</ele>
        <time>2013-12-10T14:12:41Z</time>
      </trkpt>
      <trkpt lat="44.3274" lon="2.61451">
        <ele>652.744</ele>
        <time>2013-12-10T14:12:46Z</time>
      </trkpt>
      <trkpt lat="44.32744" lon="2.61432">
        <ele>653.065</ele>
        <time>2013-12-10T14:12:52Z</time>
      </trkpt>
      <trkpt lat="44.32749" lon="2.61408">
        <ele>652.614</ele>
        <time>2013-12-10T14:12:59Z</time>
      </trkpt>
      <trkpt lat="44.32753" lon="2.6139">
        <ele>653.144</ele>
        <time>2013-12-10T14:13:04Z</time>
      </trkpt>
      <trkpt lat="44.3276" lon="2.61368">
        <ele>656.075</ele>
        <time>2013-12-10T14:13:11Z</time>
      </trkpt>
      <trkpt lat="44.32769" lon="2.61339">
        <ele>658.895</ele>
        <time>2013-12-10T14:13:20Z</time>
      </trkpt>
      <trkpt lat="44.3278" lon="2.6131">
        <ele>657.824</ele>
        <time>2013-12-10T14:13:28Z</time>
      </trkpt>
      <trkpt lat="44.32788" lon="2.61287">
        <ele>657.114</ele>
        <time>2013-12-10T14:13:34Z</time>
      </trkpt>
      <trkpt lat="44.32798" lon="2.61261">
        <ele>654.433</ele>
        <time>2013-12-10T14:13:41Z</time>
      </trkpt>
      <trkpt lat="44.32808" lon="2.61239">
        <ele>653.644</ele>
        <time>2013-12-10T14:13:47Z</time>
      </trkpt>
      <trkpt lat="44.32819" lon="2.6122">
        <ele>655.155</ele>
        <time>2013-12-10T14:13:53Z</time>
      </trkpt>
      <trkpt lat="44.32832" lon="2.61198">
        <ele>656.004</ele>
        <time>2013-12-10T14:14:00Z</time>
      </trkpt>
      <trkpt lat="44.32841" lon="2.61183">
        <ele>656.565</ele>
        <time>2013-12-10T14:14:05Z</time>
      </trkpt>
      <trkpt lat="44.32858" lon="2.61155">
        <ele>655.584</ele>
        <time>2013-12-10T14:14:14Z</time>
      </trkpt>
      <trkpt lat="44.32868" lon="2.61139">
        <ele>653.974</ele>
        <time>2013-12-10T14:14:19Z</time>
      </trkpt>
      <trkpt lat="44.32881" lon="2.61119">
        <ele>653.824</ele>
        <time>2013-12-10T14:14:26Z</time>
      </trkpt>
      <trkpt lat="44.32894" lon="2.61097">
        <ele>653.164</ele>
        <time>2013-12-10T14:14:33Z</time>
      </trkpt>
      <trkpt lat="44.32907" lon="2.61076">
        <ele>652.804</ele>
        <time>2013-12-10T14:14:40Z</time>
      </trkpt>
      <trkpt lat="44.32925" lon="2.61056">
        <ele>651.914</ele>
        <time>2013-12-10T14:14:48Z</time>
      </trkpt>
      <trkpt lat="44.32941" lon="2.61038">
        <ele>651.104</ele>
        <time>2013-12-10T14:14:55Z</time>
      </trkpt>
      <trkpt lat="44.32958" lon="2.6102">
        <ele>650.714</ele>
        <time>2013-12-10T14:15:02Z</time>
      </trkpt>
      <trkpt lat="44.32974" lon="2.61001">
        <ele>649.634</ele>
        <time>2013-12-10T14:15:09Z</time>
      </trkpt>
      <trkpt lat="44.32993" lon="2.60982">
        <ele>649.905</ele>
        <time>2013-12-10T14:15:17Z</time>
      </trkpt>
      <trkpt lat="44.33011" lon="2.60967">
        <ele>648.913</ele>
        <time>2013-12-10T14:15:24Z</time>
      </trkpt>
      <trkpt lat="44.33029" lon="2.60957">
        <ele>648.374</ele>
        <time>2013-12-10T14:15:30Z</time>
      </trkpt>
      <trkpt lat="44.33052" lon="2.60946">
        <ele>649.555</ele>
        <time>2013-12-10T14:15:38Z</time>
      </trkpt>
      <trkpt lat="44.33063" lon="2.60936">
        <ele>650.945</ele>
        <time>2013-12-10T14:15:43Z</time>
      </trkpt>
      <trkpt lat="44.33078" lon="2.6092">
        <ele>647.554</ele>
        <time>2013-12-10T14:15:49Z</time>
      </trkpt>
      <trkpt lat="44.33092" lon="2.60901">
        <ele>643.744</ele>
        <time>2013-12-10T14:15:55Z</time>
      </trkpt>
      <trkpt lat="44.33107" lon="2.6088">
        <ele>642.825</ele>
        <time>2013-12-10T14:16:02Z</time>
      </trkpt>
      <trkpt lat="44.33124" lon="2.60863">
        <ele>641.664</ele>
        <time>2013-12-10T14:16:09Z</time>
      </trkpt>
      <trkpt lat="44.33143" lon="2.60846">
        <ele>640.044</ele>
        <time>2013-12-10T14:16:16Z</time>
      </trkpt>
      <trkpt lat="44.33165" lon="2.60825">
        <ele>638.955</ele>
        <time>2013-12-10T14:16:25Z</time>
      </trkpt>
      <trkpt lat="44.33186" lon="2.60804">
        <ele>637.974</ele>
        <time>2013-12-10T14:16:34Z</time>
      </trkpt>
      <trkpt lat="44.33196" lon="2.60784">
        <ele>637.534</ele>
        <time>2013-12-10T14:16:40Z</time>
      </trkpt>
      <trkpt lat="44.33207" lon="2.60764">
        <ele>635.763</ele>
        <time>2013-12-10T14:16:46Z</time>
      </trkpt>
      <trkpt lat="44.33209" lon="2.60745">
        <ele>633.084</ele>
        <time>2013-12-10T14:16:51Z</time>
      </trkpt>
      <trkpt lat="44.33225" lon="2.60719">
        <ele>630.654</ele>
        <time>2013-12-10T14:16:57Z</time>
      </trkpt>
      <trkpt lat="44.33237" lon="2.607">
        <ele>629.264</ele>
        <time>2013-12-10T14:17:03Z</time>
      </trkpt>
      <trkpt lat="44.33251" lon="2.6068">
        <ele>627.103</ele>
        <time>2013-12-10T14:17:10Z</time>
      </trkpt>
      <trkpt lat="44.33267" lon="2.60656">
        <ele>625.074</ele>
        <time>2013-12-10T14:17:18Z</time>
      </trkpt>
      <trkpt lat="44.33281" lon="2.60641">
        <ele>623.053</ele>
        <time>2013-12-10T14:17:24Z</time>
      </trkpt>
      <trkpt lat="44.33304" lon="2.60627">
        <ele>620.644</ele>
        <time>2013-12-10T14:17:32Z</time>
      </trkpt>
      <trkpt lat="44.33322" lon="2.60621">
        <ele>618.703</ele>
        <time>2013-12-10T14:17:38Z</time>
      </trkpt>
      <trkpt lat="44.33345" lon="2.60615">
        <ele>616.143</ele>
        <time>2013-12-10T14:17:45Z</time>
      </trkpt>
      <trkpt lat="44.33364" lon="2.60609">
        <ele>614.273</ele>
        <time>2013-12-10T14:17:51Z</time>
      </trkpt>
      <trkpt lat="44.3338" lon="2.60608">
        <ele>612.223</ele>
        <time>2013-12-10T14:17:57Z</time>
      </trkpt>
      <trkpt lat="44.33397" lon="2.60612">
        <ele>611.084</ele>
        <time>2013-12-10T14:18:03Z</time>
      </trkpt>
      <trkpt lat="44.33412" lon="2.60614">
        <ele>611.044</ele>
        <time>2013-12-10T14:18:08Z</time>
      </trkpt>
      <trkpt lat="44.33425" lon="2.60615">
        <ele>612.885</ele>
        <time>2013-12-10T14:18:13Z</time>
      </trkpt>
      <trkpt lat="44.33436" lon="2.60616">
        <ele>611.265</ele>
        <time>2013-12-10T14:18:18Z</time>
      </trkpt>
      <trkpt lat="44.33441" lon="2.60616">
        <ele>608.824</ele>
        <time>2013-12-10T14:18:22Z</time>
      </trkpt>
      <trkpt lat="44.33441" lon="2.60616">
        <ele>608.092</ele>
        <time>2013-12-10T14:18:23Z</time>
      </trkpt>
      <trkpt lat="44.33448" lon="2.60602">
        <ele>607.146</ele>
        <time>2013-12-10T14:18:30Z</time>
      </trkpt>
      <trkpt lat="44.33459" lon="2.60595">
        <ele>606.846</ele>
        <time>2013-12-10T14:18:38Z</time>
      </trkpt>
      <trkpt lat="44.33469" lon="2.60584">
        <ele>603.244</ele>
        <time>2013-12-10T14:18:44Z</time>
      </trkpt>
      <trkpt lat="44.33477" lon="2.60575">
        <ele>602.935</ele>
        <time>2013-12-10T14:18:48Z</time>
      </trkpt>
      <trkpt lat="44.33492" lon="2.60557">
        <ele>603.515</ele>
        <time>2013-12-10T14:18:56Z</time>
      </trkpt>
      <trkpt lat="44.3351" lon="2.60543">
        <ele>600.574</ele>
        <time>2013-12-10T14:19:03Z</time>
      </trkpt>
      <trkpt lat="44.33532" lon="2.60536">
        <ele>598.764</ele>
        <time>2013-12-10T14:19:11Z</time>
      </trkpt>
      <trkpt lat="44.3355" lon="2.60538">
        <ele>597.405</ele>
        <time>2013-12-10T14:19:18Z</time>
      </trkpt>
      <trkpt lat="44.33575" lon="2.60544">
        <ele>593.97</ele>
        <time>2013-12-10T14:19:26Z</time>
      </trkpt>
      <trkpt lat="44.33591" lon="2.60548">
        <ele>592.094</ele>
        <time>2013-12-10T14:19:32Z</time>
      </trkpt>
      <trkpt lat="44.33603" lon="2.60553">
        <ele>591.675</ele>
        <time>2013-12-10T14:19:37Z</time>
      </trkpt>
      <trkpt lat="44.33614" lon="2.60544">
        <ele>590.345</ele>
        <time>2013-12-10T14:19:41Z</time>
      </trkpt>
      <trkpt lat="44.33627" lon="2.60525">
        <ele>589.155</ele>
        <time>2013-12-10T14:19:48Z</time>
      </trkpt>
      <trkpt lat="44.3364" lon="2.60501">
        <ele>590.246</ele>
        <time>2013-12-10T14:19:56Z</time>
      </trkpt>
      <trkpt lat="44.33647" lon="2.6048">
        <ele>589.605</ele>
        <time>2013-12-10T14:20:02Z</time>
      </trkpt>
      <trkpt lat="44.33653" lon="2.60459">
        <ele>588.475</ele>
        <time>2013-12-10T14:20:08Z</time>
      </trkpt>
      <trkpt lat="44.33659" lon="2.60437">
        <ele>587.595</ele>
        <time>2013-12-10T14:20:14Z</time>
      </trkpt>
      <trkpt lat="44.33664" lon="2.60409">
        <ele>586.316</ele>
        <time>2013-12-10T14:20:21Z</time>
      </trkpt>
      <trkpt lat="44.33668" lon="2.60384">
        <ele>585.546</ele>
        <time>2013-12-10T14:20:28Z</time>
      </trkpt>
      <trkpt lat="44.33671" lon="2.60358">
        <ele>584.686</ele>
        <time>2013-12-10T14:20:35Z</time>
      </trkpt>
      <trkpt lat="44.33674" lon="2.60339">
        <ele>584.836</ele>
        <time>2013-12-10T14:20:40Z</time>
      </trkpt>
      <trkpt lat="44.33674" lon="2.60323">
        <ele>585.236</ele>
        <time>2013-12-10T14:20:45Z</time>
      </trkpt>
      <trkpt lat="44.33674" lon="2.60304">
        <ele>584.216</ele>
        <time>2013-12-10T14:20:50Z</time>
      </trkpt>
      <trkpt lat="44.33672" lon="2.6028">
        <ele>583.025</ele>
        <time>2013-12-10T14:20:56Z</time>
      </trkpt>
      <trkpt lat="44.33669" lon="2.60253">
        <ele>583.557</ele>
        <time>2013-12-10T14:21:03Z</time>
      </trkpt>
      <trkpt lat="44.33664" lon="2.60226">
        <ele>582.726</ele>
        <time>2013-12-10T14:21:10Z</time>
      </trkpt>
      <trkpt lat="44.33659" lon="2.60196">
        <ele>580.545</ele>
        <time>2013-12-10T14:21:18Z</time>
      </trkpt>
      <trkpt lat="44.33652" lon="2.60166">
        <ele>579.495</ele>
        <time>2013-12-10T14:21:26Z</time>
      </trkpt>
      <trkpt lat="44.33645" lon="2.60141">
        <ele>579.615</ele>
        <time>2013-12-10T14:21:34Z</time>
      </trkpt>
      <trkpt lat="44.33633" lon="2.60116">
        <ele>579.675</ele>
        <time>2013-12-10T14:21:42Z</time>
      </trkpt>
      <trkpt lat="44.33621" lon="2.60098">
        <ele>579.265</ele>
        <time>2013-12-10T14:21:49Z</time>
      </trkpt>
      <trkpt lat="44.3361" lon="2.60081">
        <ele>580.006</ele>
        <time>2013-12-10T14:21:56Z</time>
      </trkpt>
      <trkpt lat="44.33606" lon="2.60075">
        <ele>579.836</ele>
        <time>2013-12-10T14:21:59Z</time>
      </trkpt>
      <trkpt lat="44.336" lon="2.60063">
        <ele>579.516</ele>
        <time>2013-12-10T14:22:04Z</time>
      </trkpt>
      <trkpt lat="44.33596" lon="2.60057">
        <ele>579.475</ele>
        <time>2013-12-10T14:22:06Z</time>
      </trkpt>
      <trkpt lat="44.33588" lon="2.60036">
        <ele>577.545</ele>
        <time>2013-12-10T14:22:12Z</time>
      </trkpt>
      <trkpt lat="44.33584" lon="2.60019">
        <ele>577.625</ele>
        <time>2013-12-10T14:22:17Z</time>
      </trkpt>
      <trkpt lat="44.33586" lon="2.59986">
        <ele>577.885</ele>
        <time>2013-12-10T14:22:25Z</time>
      </trkpt>
      <trkpt lat="44.33588" lon="2.59963">
        <ele>578.825</ele>
        <time>2013-12-10T14:22:31Z</time>
      </trkpt>
      <trkpt lat="44.33591" lon="2.59937">
        <ele>579.915</ele>
        <time>2013-12-10T14:22:38Z</time>
      </trkpt>
      <trkpt lat="44.33594" lon="2.59911">
        <ele>579.805</ele>
        <time>2013-12-10T14:22:45Z</time>
      </trkpt>
      <trkpt lat="44.33597" lon="2.59885">
        <ele>578.794</ele>
        <time>2013-12-10T14:22:52Z</time>
      </trkpt>
      <trkpt lat="44.33601" lon="2.59858">
        <ele>578.584</ele>
        <time>2013-12-10T14:22:59Z</time>
      </trkpt>
      <trkpt lat="44.33605" lon="2.5983">
        <ele>578.774</ele>
        <time>2013-12-10T14:23:07Z</time>
      </trkpt>
      <trkpt lat="44.33607" lon="2.59805">
        <ele>578.824</ele>
        <time>2013-12-10T14:23:13Z</time>
      </trkpt>
      <trkpt lat="44.33606" lon="2.59779">
        <ele>578.515</ele>
        <time>2013-12-10T14:23:20Z</time>
      </trkpt>
      <trkpt lat="44.33598" lon="2.59754">
        <ele>578.604</ele>
        <time>2013-12-10T14:23:26Z</time>
      </trkpt>
      <trkpt lat="44.33588" lon="2.59736">
        <ele>578.835</ele>
        <time>2013-12-10T14:23:33Z</time>
      </trkpt>
      <trkpt lat="44.33581" lon="2.59722">
        <ele>580.356</ele>
        <time>2013-12-10T14:23:39Z</time>
      </trkpt>
      <trkpt lat="44.33574" lon="2.5971">
        <ele>581.086</ele>
        <time>2013-12-10T14:23:44Z</time>
      </trkpt>
      <trkpt lat="44.33569" lon="2.59701">
        <ele>581.897</ele>
        <time>2013-12-10T14:23:48Z</time>
      </trkpt>
      <trkpt lat="44.33558" lon="2.59684">
        <ele>581.666</ele>
        <time>2013-12-10T14:23:55Z</time>
      </trkpt>
      <trkpt lat="44.33544" lon="2.59663">
        <ele>579.054</ele>
        <time>2013-12-10T14:24:02Z</time>
      </trkpt>
      <trkpt lat="44.33534" lon="2.59634">
        <ele>576.604</ele>
        <time>2013-12-10T14:24:10Z</time>
      </trkpt>
      <trkpt lat="44.33532" lon="2.59615">
        <ele>575.805</ele>
        <time>2013-12-10T14:24:15Z</time>
      </trkpt>
      <trkpt lat="44.33532" lon="2.5959">
        <ele>575.025</ele>
        <time>2013-12-10T14:24:22Z</time>
      </trkpt>
      <trkpt lat="44.33531" lon="2.59568">
        <ele>573.774</ele>
        <time>2013-12-10T14:24:28Z</time>
      </trkpt>
      <trkpt lat="44.33527" lon="2.5955">
        <ele>573.564</ele>
        <time>2013-12-10T14:24:33Z</time>
      </trkpt>
      <trkpt lat="44.33519" lon="2.59521">
        <ele>572.394</ele>
        <time>2013-12-10T14:24:42Z</time>
      </trkpt>
      <trkpt lat="44.33508" lon="2.59495">
        <ele>570.774</ele>
        <time>2013-12-10T14:24:50Z</time>
      </trkpt>
      <trkpt lat="44.335" lon="2.59476">
        <ele>572.894</ele>
        <time>2013-12-10T14:24:57Z</time>
      </trkpt>
      <trkpt lat="44.3349" lon="2.59453">
        <ele>571.913</ele>
        <time>2013-12-10T14:25:05Z</time>
      </trkpt>
      <trkpt lat="44.33483" lon="2.59433">
        <ele>571.054</ele>
        <time>2013-12-10T14:25:11Z</time>
      </trkpt>
      <trkpt lat="44.3348" lon="2.594">
        <ele>570.393</ele>
        <time>2013-12-10T14:25:19Z</time>
      </trkpt>
      <trkpt lat="44.33487" lon="2.59364">
        <ele>568.312</ele>
        <time>2013-12-10T14:25:27Z</time>
      </trkpt>
      <trkpt lat="44.3349" lon="2.5934">
        <ele>567.472</ele>
        <time>2013-12-10T14:25:33Z</time>
      </trkpt>
      <trkpt lat="44.33488" lon="2.59309">
        <ele>566.603</ele>
        <time>2013-12-10T14:25:41Z</time>
      </trkpt>
      <trkpt lat="44.33482" lon="2.59272">
        <ele>566.373</ele>
        <time>2013-12-10T14:25:51Z</time>
      </trkpt>
      <trkpt lat="44.33478" lon="2.59251">
        <ele>566.194</ele>
        <time>2013-12-10T14:25:57Z</time>
      </trkpt>
      <trkpt lat="44.33474" lon="2.59224">
        <ele>568.494</ele>
        <time>2013-12-10T14:26:05Z</time>
      </trkpt>
      <trkpt lat="44.33471" lon="2.59196">
        <ele>568.293</ele>
        <time>2013-12-10T14:26:13Z</time>
      </trkpt>
      <trkpt lat="44.33471" lon="2.59162">
        <ele>568.734</ele>
        <time>2013-12-10T14:26:22Z</time>
      </trkpt>
      <trkpt lat="44.33472" lon="2.59132">
        <ele>569.263</ele>
        <time>2013-12-10T14:26:30Z</time>
      </trkpt>
      <trkpt lat="44.33474" lon="2.59103">
        <ele>568.533</ele>
        <time>2013-12-10T14:26:38Z</time>
      </trkpt>
      <trkpt lat="44.33476" lon="2.59076">
        <ele>570.963</ele>
        <time>2013-12-10T14:26:46Z</time>
      </trkpt>
      <trkpt lat="44.33478" lon="2.59054">
        <ele>569.092</ele>
        <time>2013-12-10T14:26:52Z</time>
      </trkpt>
      <trkpt lat="44.33488" lon="2.59023">
        <ele>566.013</ele>
        <time>2013-12-10T14:27:00Z</time>
      </trkpt>
      <trkpt lat="44.33496" lon="2.59006">
        <ele>565.023</ele>
        <time>2013-12-10T14:27:05Z</time>
      </trkpt>
      <trkpt lat="44.33506" lon="2.58984">
        <ele>565.573</ele>
        <time>2013-12-10T14:27:12Z</time>
      </trkpt>
      <trkpt lat="44.33515" lon="2.58965">
        <ele>567.834</ele>
        <time>2013-12-10T14:27:18Z</time>
      </trkpt>
      <trkpt lat="44.33522" lon="2.58948">
        <ele>567.493</ele>
        <time>2013-12-10T14:27:23Z</time>
      </trkpt>
      <trkpt lat="44.33528" lon="2.58934">
        <ele>568.313</ele>
        <time>2013-12-10T14:27:28Z</time>
      </trkpt>
      <trkpt lat="44.33535" lon="2.58915">
        <ele>570.064</ele>
        <time>2013-12-10T14:27:34Z</time>
      </trkpt>
      <trkpt lat="44.33545" lon="2.58893">
        <ele>569.723</ele>
        <time>2013-12-10T14:27:41Z</time>
      </trkpt>
      <trkpt lat="44.3356" lon="2.58869">
        <ele>566.752</ele>
        <time>2013-12-10T14:27:49Z</time>
      </trkpt>
      <trkpt lat="44.33568" lon="2.58855">
        <ele>565.763</ele>
        <time>2013-12-10T14:27:54Z</time>
      </trkpt>
      <trkpt lat="44.33578" lon="2.58844">
        <ele>567.304</ele>
        <time>2013-12-10T14:28:00Z</time>
      </trkpt>
      <trkpt lat="44.33576" lon="2.5882">
        <ele>566.553</ele>
        <time>2013-12-10T14:28:06Z</time>
      </trkpt>
      <trkpt lat="44.33576" lon="2.58818">
        <ele>567.463</ele>
        <time>2013-12-10T14:28:07Z</time>
      </trkpt>
      <trkpt lat="44.33569" lon="2.58803">
        <ele>573.535</ele>
        <time>2013-12-10T14:28:17Z</time>
      </trkpt>
      <trkpt lat="44.33555" lon="2.58779">
        <ele>575.605</ele>
        <time>2013-12-10T14:28:22Z</time>
      </trkpt>
      <trkpt lat="44.33556" lon="2.58782">
        <ele>572.581</ele>
        <time>2013-12-10T14:28:29Z</time>
      </trkpt>
      <trkpt lat="44.3355" lon="2.58771">
        <ele>565.46</ele>
        <time>2013-12-10T14:28:35Z</time>
      </trkpt>
      <trkpt lat="44.33555" lon="2.58779">
        <ele>559.511</ele>
        <time>2013-12-10T14:28:43Z</time>
      </trkpt>
      <trkpt lat="44.33558" lon="2.58784">
        <ele>564.153</ele>
        <time>2013-12-10T14:28:49Z</time>
      </trkpt>
      <trkpt lat="44.33556" lon="2.58782">
        <ele>563.673</ele>
        <time>2013-12-10T14:28:54Z</time>
      </trkpt>
      <trkpt lat="44.33556" lon="2.58782">
        <ele>560.062</ele>
        <time>2013-12-10T14:29:03Z</time>
      </trkpt>
      <trkpt lat="44.33556" lon="2.58782">
        <ele>557.192</ele>
        <time>2013-12-10T14:29:08Z</time>
      </trkpt>
      <trkpt lat="44.33556" lon="2.58782">
        <ele>557.903</ele>
        <time>2013-12-10T14:29:12Z</time>
      </trkpt>
      <trkpt lat="44.33561" lon="2.5879">
        <ele>561.996</ele>
        <time>2013-12-10T14:29:19Z</time>
      </trkpt>
      <trkpt lat="44.33562" lon="2.58791">
        <ele>562.416</ele>
        <time>2013-12-10T14:29:20Z</time>
      </trkpt>
      <trkpt lat="44.33556" lon="2.58782">
        <ele>562.567</ele>
        <time>2013-12-10T14:29:25Z</time>
      </trkpt>
      <trkpt lat="44.33569" lon="2.58803">
        <ele>564.317</ele>
        <time>2013-12-10T14:29:29Z</time>
      </trkpt>
      <trkpt lat="44.33623" lon="2.5877">
        <ele>565.014</ele>
        <time>2013-12-10T14:29:36Z</time>
      </trkpt>
      <trkpt lat="44.33635" lon="2.58767">
        <ele>565.644</ele>
        <time>2013-12-10T14:29:41Z</time>
      </trkpt>
      <trkpt lat="44.33647" lon="2.58761">
        <ele>566.154</ele>
        <time>2013-12-10T14:29:47Z</time>
      </trkpt>
      <trkpt lat="44.33663" lon="2.58754">
        <ele>561.094</ele>
        <time>2013-12-10T14:29:53Z</time>
      </trkpt>
      <trkpt lat="44.33673" lon="2.58748">
        <ele>560.723</ele>
        <time>2013-12-10T14:29:58Z</time>
      </trkpt>
      <trkpt lat="44.33715" lon="2.58791">
        <ele>559.434</ele>
        <time>2013-12-10T14:30:04Z</time>
      </trkpt>
      <trkpt lat="44.33729" lon="2.58775">
        <ele>557.083</ele>
        <time>2013-12-10T14:30:11Z</time>
      </trkpt>
      <trkpt lat="44.33735" lon="2.58769">
        <ele>557.154</ele>
        <time>2013-12-10T14:30:16Z</time>
      </trkpt>
      <trkpt lat="44.33749" lon="2.58758">
        <ele>554.133</ele>
        <time>2013-12-10T14:30:23Z</time>
      </trkpt>
      <trkpt lat="44.33758" lon="2.58752">
        <ele>554.684</ele>
        <time>2013-12-10T14:30:28Z</time>
      </trkpt>
      <trkpt lat="44.33736" lon="2.58658">
        <ele>554.184</ele>
        <time>2013-12-10T14:30:34Z</time>
      </trkpt>
      <trkpt lat="44.33742" lon="2.58643">
        <ele>555.273</ele>
        <time>2013-12-10T14:30:39Z</time>
      </trkpt>
      <trkpt lat="44.33746" lon="2.58633">
        <ele>557.675</ele>
        <time>2013-12-10T14:30:43Z</time>
      </trkpt>
      <trkpt lat="44.33752" lon="2.58618">
        <ele>560.245</ele>
        <time>2013-12-10T14:30:49Z</time>
      </trkpt>
      <trkpt lat="44.33762" lon="2.58602">
        <ele>560.974</ele>
        <time>2013-12-10T14:30:55Z</time>
      </trkpt>
      <trkpt lat="44.33771" lon="2.58586">
        <ele>562.034</ele>
        <time>2013-12-10T14:31:01Z</time>
      </trkpt>
      <trkpt lat="44.33781" lon="2.58577">
        <ele>567.656</ele>
        <time>2013-12-10T14:31:07Z</time>
      </trkpt>
      <trkpt lat="44.33792" lon="2.58558">
        <ele>567.555</ele>
        <time>2013-12-10T14:31:13Z</time>
      </trkpt>
      <trkpt lat="44.33803" lon="2.58545">
        <ele>565.234</ele>
        <time>2013-12-10T14:31:18Z</time>
      </trkpt>
      <trkpt lat="44.33823" lon="2.5852">
        <ele>557.201</ele>
        <time>2013-12-10T14:31:26Z</time>
      </trkpt>
      <trkpt lat="44.33836" lon="2.58508">
        <ele>554.833</ele>
        <time>2013-12-10T14:31:32Z</time>
      </trkpt>
      <trkpt lat="44.33848" lon="2.58499">
        <ele>555.103</ele>
        <time>2013-12-10T14:31:37Z</time>
      </trkpt>
      <trkpt lat="44.33862" lon="2.58493">
        <ele>554.533</ele>
        <time>2013-12-10T14:31:43Z</time>
      </trkpt>
      <trkpt lat="44.33882" lon="2.58562">
        <ele>556.415</ele>
        <time>2013-12-10T14:31:50Z</time>
      </trkpt>
      <trkpt lat="44.33891" lon="2.58561">
        <ele>559.045</ele>
        <time>2013-12-10T14:31:54Z</time>
      </trkpt>
      <trkpt lat="44.33895" lon="2.58561">
        <ele>563.285</ele>
        <time>2013-12-10T14:32:01Z</time>
      </trkpt>
      <trkpt lat="44.33902" lon="2.58565">
        <ele>564.946</ele>
        <time>2013-12-10T14:32:06Z</time>
      </trkpt>
      <trkpt lat="44.33908" lon="2.5857">
        <ele>567.176</ele>
        <time>2013-12-10T14:32:11Z</time>
      </trkpt>
      <trkpt lat="44.33915" lon="2.58577">
        <ele>568.226</ele>
        <time>2013-12-10T14:32:17Z</time>
      </trkpt>
      <trkpt lat="44.33917" lon="2.5858">
        <ele>567.076</ele>
        <time>2013-12-10T14:32:21Z</time>
      </trkpt>
      <trkpt lat="44.33921" lon="2.58588">
        <ele>567.395</ele>
        <time>2013-12-10T14:32:25Z</time>
      </trkpt>
      <trkpt lat="44.33923" lon="2.58591">
        <ele>569.599</ele>
        <time>2013-12-10T14:32:29Z</time>
      </trkpt>
      <trkpt lat="44.33928" lon="2.586">
        <ele>572.488</ele>
        <time>2013-12-10T14:32:35Z</time>
      </trkpt>
      <trkpt lat="44.33937" lon="2.58616">
        <ele>574.818</ele>
        <time>2013-12-10T14:32:44Z</time>
      </trkpt>
      <trkpt lat="44.33942" lon="2.58627">
        <ele>573.226</ele>
        <time>2013-12-10T14:32:49Z</time>
      </trkpt>
      <trkpt lat="44.33949" lon="2.58642">
        <ele>572.646</ele>
        <time>2013-12-10T14:32:54Z</time>
      </trkpt>
      <trkpt lat="44.33958" lon="2.58656">
        <ele>575.467</ele>
        <time>2013-12-10T14:32:59Z</time>
      </trkpt>
      <trkpt lat="44.3397" lon="2.5867">
        <ele>578.267</ele>
        <time>2013-12-10T14:33:05Z</time>
      </trkpt>
      <trkpt lat="44.33985" lon="2.58685">
        <ele>571.544</ele>
        <time>2013-12-10T14:33:10Z</time>
      </trkpt>
      <trkpt lat="44.33998" lon="2.58692">
        <ele>566.293</ele>
        <time>2013-12-10T14:33:15Z</time>
      </trkpt>
      <trkpt lat="44.34014" lon="2.58699">
        <ele>565.474</ele>
        <time>2013-12-10T14:33:19Z</time>
      </trkpt>
      <trkpt lat="44.34059" lon="2.58687">
        <ele>565.615</ele>
        <time>2013-12-10T14:33:24Z</time>
      </trkpt>
      <trkpt lat="44.3409" lon="2.58645">
        <ele>564.435</ele>
        <time>2013-12-10T14:33:31Z</time>
      </trkpt>
      <trkpt lat="44.34098" lon="2.58628">
        <ele>565.396</ele>
        <time>2013-12-10T14:33:37Z</time>
      </trkpt>
      <trkpt lat="44.34107" lon="2.58608">
        <ele>562.125</ele>
        <time>2013-12-10T14:33:43Z</time>
      </trkpt>
      <trkpt lat="44.34118" lon="2.5858">
        <ele>556.553</ele>
        <time>2013-12-10T14:33:49Z</time>
      </trkpt>
      <trkpt lat="44.34125" lon="2.58558">
        <ele>553.134</ele>
        <time>2013-12-10T14:33:55Z</time>
      </trkpt>
      <trkpt lat="44.34135" lon="2.58532">
        <ele>551.814</ele>
        <time>2013-12-10T14:34:03Z</time>
      </trkpt>
      <trkpt lat="44.34147" lon="2.58507">
        <ele>548.023</ele>
        <time>2013-12-10T14:34:11Z</time>
      </trkpt>
      <trkpt lat="44.34159" lon="2.58483">
        <ele>544.943</ele>
        <time>2013-12-10T14:34:19Z</time>
      </trkpt>
      <trkpt lat="44.34163" lon="2.58475">
        <ele>545.314</ele>
        <time>2013-12-10T14:34:27Z</time>
      </trkpt>
      <trkpt lat="44.34135" lon="2.58393">
        <ele>545.744</ele>
        <time>2013-12-10T14:34:38Z</time>
      </trkpt>
      <trkpt lat="44.34144" lon="2.5838">
        <ele>545.244</ele>
        <time>2013-12-10T14:34:44Z</time>
      </trkpt>
      <trkpt lat="44.34202" lon="2.58376">
        <ele>542.823</ele>
        <time>2013-12-10T14:34:50Z</time>
      </trkpt>
      <trkpt lat="44.34202" lon="2.58376">
        <ele>542.123</ele>
        <time>2013-12-10T14:34:53Z</time>
      </trkpt>
      <trkpt lat="44.34169" lon="2.58364">
        <ele>540.903</ele>
        <time>2013-12-10T14:34:57Z</time>
      </trkpt>
      <trkpt lat="44.34185" lon="2.58375">
        <ele>539.923</ele>
        <time>2013-12-10T14:35:04Z</time>
      </trkpt>
      <trkpt lat="44.34202" lon="2.58376">
        <ele>540.264</ele>
        <time>2013-12-10T14:35:11Z</time>
      </trkpt>
      <trkpt lat="44.34214" lon="2.58381">
        <ele>541.224</ele>
        <time>2013-12-10T14:35:17Z</time>
      </trkpt>
      <trkpt lat="44.34226" lon="2.58372">
        <ele>541.844</ele>
        <time>2013-12-10T14:35:22Z</time>
      </trkpt>
      <trkpt lat="44.34226" lon="2.58372">
        <ele>541.443</ele>
        <time>2013-12-10T14:35:27Z</time>
      </trkpt>
      <trkpt lat="44.34248" lon="2.58373">
        <ele>542.205</ele>
        <time>2013-12-10T14:35:32Z</time>
      </trkpt>
      <trkpt lat="44.34261" lon="2.58383">
        <ele>542.374</ele>
        <time>2013-12-10T14:35:37Z</time>
      </trkpt>
      <trkpt lat="44.34272" lon="2.58379">
        <ele>542.183</ele>
        <time>2013-12-10T14:35:41Z</time>
      </trkpt>
      <trkpt lat="44.34273" lon="2.58378">
        <ele>542.554</ele>
        <time>2013-12-10T14:35:47Z</time>
      </trkpt>
      <trkpt lat="44.34299" lon="2.58348">
        <ele>543.724</ele>
        <time>2013-12-10T14:35:55Z</time>
      </trkpt>
      <trkpt lat="44.34312" lon="2.58333">
        <ele>546.235</ele>
        <time>2013-12-10T14:36:02Z</time>
      </trkpt>
      <trkpt lat="44.34328" lon="2.58313">
        <ele>545.975</ele>
        <time>2013-12-10T14:36:10Z</time>
      </trkpt>
      <trkpt lat="44.34341" lon="2.58293">
        <ele>545.695</ele>
        <time>2013-12-10T14:36:17Z</time>
      </trkpt>
      <trkpt lat="44.34356" lon="2.58267">
        <ele>544.024</ele>
        <time>2013-12-10T14:36:25Z</time>
      </trkpt>
      <trkpt lat="44.34366" lon="2.58247">
        <ele>543.784</ele>
        <time>2013-12-10T14:36:31Z</time>
      </trkpt>
      <trkpt lat="44.34374" lon="2.58224">
        <ele>541.484</ele>
        <time>2013-12-10T14:36:38Z</time>
      </trkpt>
      <trkpt lat="44.34379" lon="2.58211">
        <ele>539.943</ele>
        <time>2013-12-10T14:36:42Z</time>
      </trkpt>
      <trkpt lat="44.34383" lon="2.582">
        <ele>539.484</ele>
        <time>2013-12-10T14:36:46Z</time>
      </trkpt>
      <trkpt lat="44.34392" lon="2.58161">
        <ele>540.604</ele>
        <time>2013-12-10T14:36:56Z</time>
      </trkpt>
      <trkpt lat="44.34398" lon="2.58135">
        <ele>540.675</ele>
        <time>2013-12-10T14:37:04Z</time>
      </trkpt>
      <trkpt lat="44.34405" lon="2.58119">
        <ele>538.854</ele>
        <time>2013-12-10T14:37:09Z</time>
      </trkpt>
      <trkpt lat="44.34411" lon="2.58111">
        <ele>538.664</ele>
        <time>2013-12-10T14:37:13Z</time>
      </trkpt>
      <trkpt lat="44.34417" lon="2.581">
        <ele>542.036</ele>
        <time>2013-12-10T14:37:22Z</time>
      </trkpt>
      <trkpt lat="44.34418" lon="2.58099">
        <ele>547.688</ele>
        <time>2013-12-10T14:37:30Z</time>
      </trkpt>
      <trkpt lat="44.34427" lon="2.58086">
        <ele>546.905</ele>
        <time>2013-12-10T14:37:36Z</time>
      </trkpt>
      <trkpt lat="44.34435" lon="2.58077">
        <ele>548.116</ele>
        <time>2013-12-10T14:37:40Z</time>
      </trkpt>
      <trkpt lat="44.34442" lon="2.58068">
        <ele>552.677</ele>
        <time>2013-12-10T14:37:47Z</time>
      </trkpt>
      <trkpt lat="44.34449" lon="2.58061">
        <ele>555.428</ele>
        <time>2013-12-10T14:37:52Z</time>
      </trkpt>
      <trkpt lat="44.34455" lon="2.58057">
        <ele>557.158</ele>
        <time>2013-12-10T14:37:55Z</time>
      </trkpt>
      <trkpt lat="44.34461" lon="2.58052">
        <ele>555.847</ele>
        <time>2013-12-10T14:37:59Z</time>
      </trkpt>
      <trkpt lat="44.3448" lon="2.58037">
        <ele>549.414</ele>
        <time>2013-12-10T14:38:07Z</time>
      </trkpt>
      <trkpt lat="44.34502" lon="2.58019">
        <ele>544.584</ele>
        <time>2013-12-10T14:38:16Z</time>
      </trkpt>
      <trkpt lat="44.3452" lon="2.58005">
        <ele>543.194</ele>
        <time>2013-12-10T14:38:24Z</time>
      </trkpt>
      <trkpt lat="44.34524" lon="2.58002">
        <ele>541.624</ele>
        <time>2013-12-10T14:38:29Z</time>
      </trkpt>
      <trkpt lat="44.34545" lon="2.57988">
        <ele>540.384</ele>
        <time>2013-12-10T14:38:34Z</time>
      </trkpt>
      <trkpt lat="44.34537" lon="2.57991">
        <ele>539.234</ele>
        <time>2013-12-10T14:38:39Z</time>
      </trkpt>
      <trkpt lat="44.3454" lon="2.57989">
        <ele>540.115</ele>
        <time>2013-12-10T14:38:42Z</time>
      </trkpt>
      <trkpt lat="44.34556" lon="2.57983">
        <ele>541.676</ele>
        <time>2013-12-10T14:38:49Z</time>
      </trkpt>
      <trkpt lat="44.34573" lon="2.57986">
        <ele>542.205</ele>
        <time>2013-12-10T14:38:56Z</time>
      </trkpt>
      <trkpt lat="44.34586" lon="2.57992">
        <ele>545.575</ele>
        <time>2013-12-10T14:39:03Z</time>
      </trkpt>
      <trkpt lat="44.34594" lon="2.57998">
        <ele>561.498</ele>
        <time>2013-12-10T14:39:12Z</time>
      </trkpt>
      <trkpt lat="44.34601" lon="2.58004">
        <ele>572.369</ele>
        <time>2013-12-10T14:39:20Z</time>
      </trkpt>
      <trkpt lat="44.34609" lon="2.58011">
        <ele>588.771</ele>
        <time>2013-12-10T14:39:30Z</time>
      </trkpt>
      <trkpt lat="44.34614" lon="2.58016">
        <ele>587.557</ele>
        <time>2013-12-10T14:39:38Z</time>
      </trkpt>
      <trkpt lat="44.34622" lon="2.58027">
        <ele>579.185</ele>
        <time>2013-12-10T14:39:44Z</time>
      </trkpt>
      <trkpt lat="44.34637" lon="2.58051">
        <ele>572.386</ele>
        <time>2013-12-10T14:39:53Z</time>
      </trkpt>
      <trkpt lat="44.34646" lon="2.58066">
        <ele>574.206</ele>
        <time>2013-12-10T14:40:00Z</time>
      </trkpt>
      <trkpt lat="44.34657" lon="2.58084">
        <ele>577.667</ele>
        <time>2013-12-10T14:40:07Z</time>
      </trkpt>
      <trkpt lat="44.34671" lon="2.58105">
        <ele>574.465</ele>
        <time>2013-12-10T14:40:16Z</time>
      </trkpt>
      <trkpt lat="44.34678" lon="2.58115">
        <ele>576.696</ele>
        <time>2013-12-10T14:40:24Z</time>
      </trkpt>
      <trkpt lat="44.34693" lon="2.58133">
        <ele>570.444</ele>
        <time>2013-12-10T14:40:33Z</time>
      </trkpt>
      <trkpt lat="44.3471" lon="2.58152">
        <ele>561.394</ele>
        <time>2013-12-10T14:40:42Z</time>
      </trkpt>
      <trkpt lat="44.34718" lon="2.58159">
        <ele>555.474</ele>
        <time>2013-12-10T14:40:49Z</time>
      </trkpt>
      <trkpt lat="44.34728" lon="2.58166">
        <ele>550.485</ele>
        <time>2013-12-10T14:40:56Z</time>
      </trkpt>
      <trkpt lat="44.34738" lon="2.58173">
        <ele>550.035</ele>
        <time>2013-12-10T14:41:03Z</time>
      </trkpt>
      <trkpt lat="44.34746" lon="2.58178">
        <ele>550.816</ele>
        <time>2013-12-10T14:41:10Z</time>
      </trkpt>
      <trkpt lat="44.34756" lon="2.58183">
        <ele>550.565</ele>
        <time>2013-12-10T14:41:18Z</time>
      </trkpt>
      <trkpt lat="44.34765" lon="2.58187">
        <ele>547.254</ele>
        <time>2013-12-10T14:41:25Z</time>
      </trkpt>
      <trkpt lat="44.3477" lon="2.5819">
        <ele>550.747</ele>
        <time>2013-12-10T14:41:30Z</time>
      </trkpt>
      <trkpt lat="44.34784" lon="2.58198">
        <ele>553.037</ele>
        <time>2013-12-10T14:41:37Z</time>
      </trkpt>
      <trkpt lat="44.348" lon="2.58212">
        <ele>557.398</ele>
        <time>2013-12-10T14:41:45Z</time>
      </trkpt>
      <trkpt lat="44.34814" lon="2.58223">
        <ele>559.808</ele>
        <time>2013-12-10T14:41:52Z</time>
      </trkpt>
      <trkpt lat="44.34828" lon="2.58222">
        <ele>557.906</ele>
        <time>2013-12-10T14:41:59Z</time>
      </trkpt>
      <trkpt lat="44.34843" lon="2.5824">
        <ele>557.327</ele>
        <time>2013-12-10T14:42:05Z</time>
      </trkpt>
      <trkpt lat="44.34849" lon="2.58233">
        <ele>557.737</ele>
        <time>2013-12-10T14:42:11Z</time>
      </trkpt>
      <trkpt lat="44.34875" lon="2.58242">
        <ele>558.226</ele>
        <time>2013-12-10T14:42:19Z</time>
      </trkpt>
      <trkpt lat="44.34892" lon="2.58239">
        <ele>557.916</ele>
        <time>2013-12-10T14:42:26Z</time>
      </trkpt>
      <trkpt lat="44.34909" lon="2.58236">
        <ele>560.587</ele>
        <time>2013-12-10T14:42:33Z</time>
      </trkpt>
      <trkpt lat="44.34927" lon="2.58233">
        <ele>561.637</ele>
        <time>2013-12-10T14:42:41Z</time>
      </trkpt>
      <trkpt lat="44.34944" lon="2.58226">
        <ele>563.377</ele>
        <time>2013-12-10T14:42:48Z</time>
      </trkpt>
      <trkpt lat="44.34957" lon="2.58218">
        <ele>564.277</ele>
        <time>2013-12-10T14:42:54Z</time>
      </trkpt>
      <trkpt lat="44.34969" lon="2.58207">
        <ele>563.507</ele>
        <time>2013-12-10T14:43:00Z</time>
      </trkpt>
      <trkpt lat="44.34984" lon="2.58191">
        <ele>562.547</ele>
        <time>2013-12-10T14:43:08Z</time>
      </trkpt>
      <trkpt lat="44.34994" lon="2.58179">
        <ele>563.137</ele>
        <time>2013-12-10T14:43:15Z</time>
      </trkpt>
      <trkpt lat="44.35007" lon="2.58166">
        <ele>566.138</ele>
        <time>2013-12-10T14:43:27Z</time>
      </trkpt>
      <trkpt lat="44.35024" lon="2.58149">
        <ele>567.419</ele>
        <time>2013-12-10T14:43:38Z</time>
      </trkpt>
      <trkpt lat="44.35036" lon="2.58139">
        <ele>570.359</ele>
        <time>2013-12-10T14:43:45Z</time>
      </trkpt>
      <trkpt lat="44.35048" lon="2.58131">
        <ele>571.459</ele>
        <time>2013-12-10T14:43:51Z</time>
      </trkpt>
      <trkpt lat="44.35063" lon="2.58118">
        <ele>571.868</ele>
        <time>2013-12-10T14:44:00Z</time>
      </trkpt>
      <trkpt lat="44.35078" lon="2.581">
        <ele>572.089</ele>
        <time>2013-12-10T14:44:09Z</time>
      </trkpt>
      <trkpt lat="44.35093" lon="2.58086">
        <ele>573.028</ele>
        <time>2013-12-10T14:44:17Z</time>
      </trkpt>
      <trkpt lat="44.35108" lon="2.58075">
        <ele>572.328</ele>
        <time>2013-12-10T14:44:24Z</time>
      </trkpt>
      <trkpt lat="44.35123" lon="2.58067">
        <ele>571.917</ele>
        <time>2013-12-10T14:44:31Z</time>
      </trkpt>
      <trkpt lat="44.35142" lon="2.58052">
        <ele>573.558</ele>
        <time>2013-12-10T14:44:40Z</time>
      </trkpt>
      <trkpt lat="44.35161" lon="2.58036">
        <ele>575.908</ele>
        <time>2013-12-10T14:44:50Z</time>
      </trkpt>
      <trkpt lat="44.35172" lon="2.58025">
        <ele>577.578</ele>
        <time>2013-12-10T14:44:56Z</time>
      </trkpt>
      <trkpt lat="44.35183" lon="2.58012">
        <ele>579.33</ele>
        <time>2013-12-10T14:45:03Z</time>
      </trkpt>
      <trkpt lat="44.35196" lon="2.57997">
        <ele>581.56</ele>
        <time>2013-12-10T14:45:11Z</time>
      </trkpt>
      <trkpt lat="44.35207" lon="2.57983">
        <ele>581.589</ele>
        <time>2013-12-10T14:45:17Z</time>
      </trkpt>
      <trkpt lat="44.35225" lon="2.5797">
        <ele>580.067</ele>
        <time>2013-12-10T14:45:25Z</time>
      </trkpt>
      <trkpt lat="44.35239" lon="2.57961">
        <ele>580.368</ele>
        <time>2013-12-10T14:45:31Z</time>
      </trkpt>
      <trkpt lat="44.35253" lon="2.57955">
        <ele>585.329</ele>
        <time>2013-12-10T14:45:38Z</time>
      </trkpt>
      <trkpt lat="44.35267" lon="2.5795">
        <ele>588.118</ele>
        <time>2013-12-10T14:45:44Z</time>
      </trkpt>
      <trkpt lat="44.35285" lon="2.57945">
        <ele>589.538</ele>
        <time>2013-12-10T14:45:52Z</time>
      </trkpt>
      <trkpt lat="44.35305" lon="2.57936">
        <ele>588.788</ele>
        <time>2013-12-10T14:46:01Z</time>
      </trkpt>
      <trkpt lat="44.35318" lon="2.57924">
        <ele>588.36</ele>
        <time>2013-12-10T14:46:08Z</time>
      </trkpt>
      <trkpt lat="44.35328" lon="2.57911">
        <ele>588.149</ele>
        <time>2013-12-10T14:46:15Z</time>
      </trkpt>
      <trkpt lat="44.35337" lon="2.579">
        <ele>588.869</ele>
        <time>2013-12-10T14:46:21Z</time>
      </trkpt>
      <trkpt lat="44.35349" lon="2.57883">
        <ele>589.629</ele>
        <time>2013-12-10T14:46:29Z</time>
      </trkpt>
      <trkpt lat="44.35364" lon="2.57861">
        <ele>591.129</ele>
        <time>2013-12-10T14:46:38Z</time>
      </trkpt>
      <trkpt lat="44.35379" lon="2.57851">
        <ele>590.508</ele>
        <time>2013-12-10T14:46:45Z</time>
      </trkpt>
      <trkpt lat="44.35393" lon="2.57846">
        <ele>593.16</ele>
        <time>2013-12-10T14:46:51Z</time>
      </trkpt>
      <trkpt lat="44.35403" lon="2.57847">
        <ele>597.291</ele>
        <time>2013-12-10T14:46:55Z</time>
      </trkpt>
      <trkpt lat="44.35419" lon="2.57848">
        <ele>608.074</ele>
        <time>2013-12-10T14:47:02Z</time>
      </trkpt>
      <trkpt lat="44.35434" lon="2.57846">
        <ele>616.333</ele>
        <time>2013-12-10T14:47:08Z</time>
      </trkpt>
      <trkpt lat="44.35434" lon="2.57846">
        <ele>617.461</ele>
        <time>2013-12-10T14:47:14Z</time>
      </trkpt>
      <trkpt lat="44.35455" lon="2.57826">
        <ele>609.168</ele>
        <time>2013-12-10T14:47:20Z</time>
      </trkpt>
      <trkpt lat="44.35461" lon="2.57811">
        <ele>604.469</ele>
        <time>2013-12-10T14:47:26Z</time>
      </trkpt>
      <trkpt lat="44.3547" lon="2.5779">
        <ele>599.607</ele>
        <time>2013-12-10T14:47:34Z</time>
      </trkpt>
      <trkpt lat="44.35477" lon="2.57772">
        <ele>600.289</ele>
        <time>2013-12-10T14:47:41Z</time>
      </trkpt>
      <trkpt lat="44.35483" lon="2.57757">
        <ele>601.488</ele>
        <time>2013-12-10T14:47:48Z</time>
      </trkpt>
      <trkpt lat="44.35493" lon="2.57745">
        <ele>602.14</ele>
        <time>2013-12-10T14:47:55Z</time>
      </trkpt>
      <trkpt lat="44.35504" lon="2.57736">
        <ele>605.25</ele>
        <time>2013-12-10T14:48:02Z</time>
      </trkpt>
      <trkpt lat="44.35512" lon="2.57729">
        <ele>605.559</ele>
        <time>2013-12-10T14:48:08Z</time>
      </trkpt>
      <trkpt lat="44.35517" lon="2.57725">
        <ele>607.16</ele>
        <time>2013-12-10T14:48:12Z</time>
      </trkpt>
      <trkpt lat="44.35523" lon="2.5772">
        <ele>605.188</ele>
        <time>2013-12-10T14:48:18Z</time>
      </trkpt>
      <trkpt lat="44.35525" lon="2.57719">
        <ele>604.888</ele>
        <time>2013-12-10T14:48:19Z</time>
      </trkpt>
      <trkpt lat="44.35533" lon="2.57713">
        <ele>605.089</ele>
        <time>2013-12-10T14:48:26Z</time>
      </trkpt>
      <trkpt lat="44.35539" lon="2.57709">
        <ele>612.781</ele>
        <time>2013-12-10T14:48:35Z</time>
      </trkpt>
      <trkpt lat="44.35541" lon="2.57707">
        <ele>607.13</ele>
        <time>2013-12-10T14:48:39Z</time>
      </trkpt>
      <trkpt lat="44.35548" lon="2.57715">
        <ele>608.42</ele>
        <time>2013-12-10T14:48:44Z</time>
      </trkpt>
      <trkpt lat="44.35548" lon="2.57715">
        <ele>607.779</ele>
        <time>2013-12-10T14:48:45Z</time>
      </trkpt>
      <trkpt lat="44.3555" lon="2.57715">
        <ele>609.419</ele>
        <time>2013-12-10T14:48:52Z</time>
      </trkpt>
      <trkpt lat="44.35563" lon="2.57681">
        <ele>612.549</ele>
        <time>2013-12-10T14:48:59Z</time>
      </trkpt>
      <trkpt lat="44.35564" lon="2.57678">
        <ele>612.639</ele>
        <time>2013-12-10T14:49:01Z</time>
      </trkpt>
      <trkpt lat="44.35553" lon="2.57685">
        <ele>621.031</ele>
        <time>2013-12-10T14:49:07Z</time>
      </trkpt>
      <trkpt lat="44.3555" lon="2.57681">
        <ele>621.151</ele>
        <time>2013-12-10T14:49:09Z</time>
      </trkpt>
      <trkpt lat="44.35538" lon="2.57667">
        <ele>616.278</ele>
        <time>2013-12-10T14:49:17Z</time>
      </trkpt>
      <trkpt lat="44.35536" lon="2.57665">
        <ele>617.158</ele>
        <time>2013-12-10T14:49:19Z</time>
      </trkpt>
      <trkpt lat="44.35526" lon="2.57653">
        <ele>606.466</ele>
        <time>2013-12-10T14:49:24Z</time>
      </trkpt>
      <trkpt lat="44.35517" lon="2.57642">
        <ele>605.886</ele>
        <time>2013-12-10T14:49:28Z</time>
      </trkpt>
      <trkpt lat="44.35514" lon="2.57639">
        <ele>606.355</ele>
        <time>2013-12-10T14:49:29Z</time>
      </trkpt>
      <trkpt lat="44.35491" lon="2.57642">
        <ele>622.661</ele>
        <time>2013-12-10T14:49:37Z</time>
      </trkpt>
      <trkpt lat="44.35485" lon="2.57644">
        <ele>637.855</ele>
        <time>2013-12-10T14:49:41Z</time>
      </trkpt>
      <trkpt lat="44.3548" lon="2.57645">
        <ele>646.092</ele>
        <time>2013-12-10T14:49:44Z</time>
      </trkpt>
      <trkpt lat="44.35468" lon="2.57649">
        <ele>661.229</ele>
        <time>2013-12-10T14:49:51Z</time>
      </trkpt>
      <trkpt lat="44.35468" lon="2.57649">
        <ele>667.175</ele>
        <time>2013-12-10T14:49:54Z</time>
      </trkpt>
      <trkpt lat="44.35468" lon="2.57649">
        <ele>671.866</ele>
        <time>2013-12-10T14:49:58Z</time>
      </trkpt>
      <trkpt lat="44.35468" lon="2.57649">
        <ele>673.98</ele>
        <time>2013-12-10T14:49:59Z</time>
      </trkpt>
      <trkpt lat="44.35455" lon="2.57643">
        <ele>673.731</ele>
        <time>2013-12-10T14:50:08Z</time>
      </trkpt>
      <trkpt lat="44.35454" lon="2.57639">
        <ele>674.27</ele>
        <time>2013-12-10T14:50:10Z</time>
      </trkpt>
      <trkpt lat="44.35452" lon="2.5763">
        <ele>672.66</ele>
        <time>2013-12-10T14:50:14Z</time>
      </trkpt>
      <trkpt lat="44.3545" lon="2.57624">
        <ele>670.069</ele>
        <time>2013-12-10T14:50:16Z</time>
      </trkpt>
      <trkpt lat="44.35444" lon="2.57599">
        <ele>660.678</ele>
        <time>2013-12-10T14:50:22Z</time>
      </trkpt>
      <trkpt lat="44.35443" lon="2.57586">
        <ele>652.427</ele>
        <time>2013-12-10T14:50:27Z</time>
      </trkpt>
      <trkpt lat="44.35441" lon="2.57565">
        <ele>645.646</ele>
        <time>2013-12-10T14:50:33Z</time>
      </trkpt>
      <trkpt lat="44.3544" lon="2.57559">
        <ele>642.256</ele>
        <time>2013-12-10T14:50:35Z</time>
      </trkpt>
      <trkpt lat="44.35434" lon="2.57537">
        <ele>634.996</ele>
        <time>2013-12-10T14:50:41Z</time>
      </trkpt>
      <trkpt lat="44.3543" lon="2.57522">
        <ele>628.465</ele>
        <time>2013-12-10T14:50:46Z</time>
      </trkpt>
      <trkpt lat="44.35428" lon="2.57515">
        <ele>627.455</ele>
        <time>2013-12-10T14:50:48Z</time>
      </trkpt>
      <trkpt lat="44.35424" lon="2.57499">
        <ele>634.769</ele>
        <time>2013-12-10T14:50:54Z</time>
      </trkpt>
      <trkpt lat="44.35419" lon="2.57487">
        <ele>636.81</ele>
        <time>2013-12-10T14:50:59Z</time>
      </trkpt>
      <trkpt lat="44.35418" lon="2.57484">
        <ele>637.86</ele>
        <time>2013-12-10T14:51:01Z</time>
      </trkpt>
      <trkpt lat="44.35421" lon="2.57464">
        <ele>641.831</ele>
        <time>2013-12-10T14:51:08Z</time>
      </trkpt>
      <trkpt lat="44.35424" lon="2.57457">
        <ele>639.219</ele>
        <time>2013-12-10T14:51:10Z</time>
      </trkpt>
      <trkpt lat="44.35444" lon="2.5743">
        <ele>637.909</ele>
        <time>2013-12-10T14:51:12Z</time>
      </trkpt>
      <trkpt lat="44.3544" lon="2.57426">
        <ele>634.217</ele>
        <time>2013-12-10T14:51:16Z</time>
      </trkpt>
      <trkpt lat="44.35432" lon="2.57416">
        <ele>627.835</ele>
        <time>2013-12-10T14:51:22Z</time>
      </trkpt>
      <trkpt lat="44.35417" lon="2.57399">
        <ele>630.028</ele>
        <time>2013-12-10T14:51:27Z</time>
      </trkpt>
      <trkpt lat="44.35407" lon="2.57387">
        <ele>626.176</ele>
        <time>2013-12-10T14:51:32Z</time>
      </trkpt>
      <trkpt lat="44.35396" lon="2.57375">
        <ele>619.473</ele>
        <time>2013-12-10T14:51:35Z</time>
      </trkpt>
      <trkpt lat="44.35374" lon="2.57348">
        <ele>601.609</ele>
        <time>2013-12-10T14:51:41Z</time>
      </trkpt>
      <trkpt lat="44.3536" lon="2.57333">
        <ele>592.678</ele>
        <time>2013-12-10T14:51:45Z</time>
      </trkpt>
      <trkpt lat="44.35352" lon="2.57323">
        <ele>590.161</ele>
        <time>2013-12-10T14:51:50Z</time>
      </trkpt>
      <trkpt lat="44.35349" lon="2.57319">
        <ele>601.398</ele>
        <time>2013-12-10T14:51:55Z</time>
      </trkpt>
      <trkpt lat="44.35349" lon="2.57319">
        <ele>605.978</ele>
        <time>2013-12-10T14:52:00Z</time>
      </trkpt>
      <trkpt lat="44.35349" lon="2.57319">
        <ele>607.099</ele>
        <time>2013-12-10T14:52:01Z</time>
      </trkpt>
      <trkpt lat="44.35344" lon="2.57313">
        <ele>611.949</ele>
        <time>2013-12-10T14:52:07Z</time>
      </trkpt>
      <trkpt lat="44.35344" lon="2.57313">
        <ele>614.138</ele>
        <time>2013-12-10T14:52:10Z</time>
      </trkpt>
      <trkpt lat="44.35343" lon="2.57315">
        <ele>617.458</ele>
        <time>2013-12-10T14:52:15Z</time>
      </trkpt>
      <trkpt lat="44.35339" lon="2.57299">
        <ele>622.819</ele>
        <time>2013-12-10T14:52:20Z</time>
      </trkpt>
      <trkpt lat="44.35342" lon="2.57292">
        <ele>626.43</ele>
        <time>2013-12-10T14:52:25Z</time>
      </trkpt>
      <trkpt lat="44.35345" lon="2.57283">
        <ele>628.039</ele>
        <time>2013-12-10T14:52:30Z</time>
      </trkpt>
      <trkpt lat="44.35348" lon="2.57275">
        <ele>627.197</ele>
        <time>2013-12-10T14:52:33Z</time>
      </trkpt>
      <trkpt lat="44.35349" lon="2.57271">
        <ele>626.967</ele>
        <time>2013-12-10T14:52:35Z</time>
      </trkpt>
    </trkseg>
  </trk>
</gpx>